<?xml version="1.0" encoding="UTF-8" standalone="no" ?>
<gpx xmlns="http://www.topografix.com/GPX/1/1" xmlns:xsi="http://www.w3.org/2001/XMLSchema-instance" xsi:schemaLocation="http://www.topografix.com/GPX/1/1 http://www.topografix.com/GPX/1/1/gpx.xsd" version="1.1" creator="VisuGPX - https://www.visugpx.com">
  <metadata>
    <name>Saint Laurent sous Coiron</name>
  </metadata>
  <trk>
    <name><![CDATA[Les reliefs : serres, gorges, ruisseaux autour de Saint-Laurent-sous-Coiron]]></name>
    <trkseg>
      <trkpt lat="44.63719" lon="4.48056">
        <ele>543</ele>
        <time>2021-02-22T10:06:32+01:00</time>
      </trkpt>
      <trkpt lat="44.63736" lon="4.48073">
        <ele>552</ele>
        <time>2021-02-22T10:06:37+01:00</time>
      </trkpt>
      <trkpt lat="44.63733" lon="4.48086">
        <ele>555</ele>
        <time>2021-02-22T10:06:42+01:00</time>
      </trkpt>
      <trkpt lat="44.63711" lon="4.4809">
        <ele>551</ele>
        <time>2021-02-22T10:06:47+01:00</time>
      </trkpt>
      <trkpt lat="44.63695" lon="4.48111">
        <ele>549</ele>
        <time>2021-02-22T10:06:52+01:00</time>
      </trkpt>
      <trkpt lat="44.63707" lon="4.48133">
        <ele>555</ele>
        <time>2021-02-22T10:06:57+01:00</time>
      </trkpt>
      <trkpt lat="44.63703" lon="4.48162">
        <ele>557</ele>
        <time>2021-02-22T10:07:02+01:00</time>
      </trkpt>
      <trkpt lat="44.63705" lon="4.48211">
        <ele>558</ele>
        <time>2021-02-22T10:07:07+01:00</time>
      </trkpt>
      <trkpt lat="44.6371" lon="4.48238">
        <ele>560</ele>
        <time>2021-02-22T10:07:12+01:00</time>
      </trkpt>
      <trkpt lat="44.63725" lon="4.48252">
        <ele>564</ele>
        <time>2021-02-22T10:07:17+01:00</time>
      </trkpt>
      <trkpt lat="44.63736" lon="4.48258">
        <ele>568</ele>
        <time>2021-02-22T10:07:22+01:00</time>
      </trkpt>
      <trkpt lat="44.63715" lon="4.48253">
        <ele>561</ele>
        <time>2021-02-22T10:07:27+01:00</time>
      </trkpt>
      <trkpt lat="44.63715" lon="4.4827">
        <ele>560</ele>
        <time>2021-02-22T10:07:32+01:00</time>
      </trkpt>
      <trkpt lat="44.63711" lon="4.48291">
        <ele>557</ele>
        <time>2021-02-22T10:07:37+01:00</time>
      </trkpt>
      <trkpt lat="44.63709" lon="4.48309">
        <ele>554</ele>
        <time>2021-02-22T10:07:42+01:00</time>
      </trkpt>
      <trkpt lat="44.63715" lon="4.48335">
        <ele>554</ele>
        <time>2021-02-22T10:07:47+01:00</time>
      </trkpt>
      <trkpt lat="44.63726" lon="4.48357">
        <ele>557</ele>
        <time>2021-02-22T10:07:52+01:00</time>
      </trkpt>
      <trkpt lat="44.63739" lon="4.48376">
        <ele>561</ele>
        <time>2021-02-22T10:07:57+01:00</time>
      </trkpt>
      <trkpt lat="44.63749" lon="4.48403">
        <ele>562</ele>
        <time>2021-02-22T10:08:02+01:00</time>
      </trkpt>
      <trkpt lat="44.63753" lon="4.48418">
        <ele>561</ele>
        <time>2021-02-22T10:08:07+01:00</time>
      </trkpt>
      <trkpt lat="44.63768" lon="4.48439">
        <ele>562</ele>
        <time>2021-02-22T10:08:12+01:00</time>
      </trkpt>
      <trkpt lat="44.63776" lon="4.48464">
        <ele>562</ele>
        <time>2021-02-22T10:08:17+01:00</time>
      </trkpt>
      <trkpt lat="44.63797" lon="4.48486">
        <ele>567</ele>
        <time>2021-02-22T10:08:22+01:00</time>
      </trkpt>
      <trkpt lat="44.63824" lon="4.48511">
        <ele>575</ele>
        <time>2021-02-22T10:08:27+01:00</time>
      </trkpt>
      <trkpt lat="44.6384" lon="4.48506">
        <ele>579</ele>
        <time>2021-02-22T10:08:32+01:00</time>
      </trkpt>
      <trkpt lat="44.63861" lon="4.48502">
        <ele>581</ele>
        <time>2021-02-22T10:08:37+01:00</time>
      </trkpt>
      <trkpt lat="44.63875" lon="4.48529">
        <ele>582</ele>
        <time>2021-02-22T10:08:42+01:00</time>
      </trkpt>
      <trkpt lat="44.63889" lon="4.48575">
        <ele>585</ele>
        <time>2021-02-22T10:08:47+01:00</time>
      </trkpt>
      <trkpt lat="44.63903" lon="4.48617">
        <ele>586</ele>
        <time>2021-02-22T10:08:52+01:00</time>
      </trkpt>
      <trkpt lat="44.63913" lon="4.4864">
        <ele>587</ele>
        <time>2021-02-22T10:08:57+01:00</time>
      </trkpt>
      <trkpt lat="44.63946" lon="4.48661">
        <ele>590</ele>
        <time>2021-02-22T10:09:02+01:00</time>
      </trkpt>
      <trkpt lat="44.63957" lon="4.48678">
        <ele>592</ele>
        <time>2021-02-22T10:09:07+01:00</time>
      </trkpt>
      <trkpt lat="44.63965" lon="4.48697">
        <ele>593</ele>
        <time>2021-02-22T10:09:12+01:00</time>
      </trkpt>
      <trkpt lat="44.63976" lon="4.48735">
        <ele>597</ele>
        <time>2021-02-22T10:09:17+01:00</time>
      </trkpt>
      <trkpt lat="44.63993" lon="4.4878">
        <ele>603</ele>
        <time>2021-02-22T10:09:22+01:00</time>
      </trkpt>
      <trkpt lat="44.64021" lon="4.48854">
        <ele>609</ele>
        <time>2021-02-22T10:09:27+01:00</time>
      </trkpt>
      <trkpt lat="44.64074" lon="4.48874">
        <ele>617</ele>
        <time>2021-02-22T10:09:32+01:00</time>
      </trkpt>
      <trkpt lat="44.64122" lon="4.4889">
        <ele>618</ele>
        <time>2021-02-22T10:09:37+01:00</time>
      </trkpt>
      <trkpt lat="44.6414" lon="4.48893">
        <ele>617</ele>
        <time>2021-02-22T10:09:42+01:00</time>
      </trkpt>
      <trkpt lat="44.64156" lon="4.48903">
        <ele>618</ele>
        <time>2021-02-22T10:09:47+01:00</time>
      </trkpt>
      <trkpt lat="44.64174" lon="4.48935">
        <ele>620</ele>
        <time>2021-02-22T10:09:52+01:00</time>
      </trkpt>
      <trkpt lat="44.64194" lon="4.48963">
        <ele>623</ele>
        <time>2021-02-22T10:09:57+01:00</time>
      </trkpt>
      <trkpt lat="44.64208" lon="4.48977">
        <ele>625</ele>
        <time>2021-02-22T10:10:02+01:00</time>
      </trkpt>
      <trkpt lat="44.64234" lon="4.48981">
        <ele>627</ele>
        <time>2021-02-22T10:10:07+01:00</time>
      </trkpt>
      <trkpt lat="44.64257" lon="4.4899">
        <ele>629</ele>
        <time>2021-02-22T10:10:12+01:00</time>
      </trkpt>
      <trkpt lat="44.64279" lon="4.48997">
        <ele>629</ele>
        <time>2021-02-22T10:10:17+01:00</time>
      </trkpt>
      <trkpt lat="44.64321" lon="4.49008">
        <ele>630</ele>
        <time>2021-02-22T10:10:22+01:00</time>
      </trkpt>
      <trkpt lat="44.64367" lon="4.49015">
        <ele>631</ele>
        <time>2021-02-22T10:10:27+01:00</time>
      </trkpt>
      <trkpt lat="44.64397" lon="4.49016">
        <ele>633</ele>
        <time>2021-02-22T10:10:32+01:00</time>
      </trkpt>
      <trkpt lat="44.64424" lon="4.4902">
        <ele>634</ele>
        <time>2021-02-22T10:10:37+01:00</time>
      </trkpt>
      <trkpt lat="44.64446" lon="4.49028">
        <ele>634</ele>
        <time>2021-02-22T10:10:42+01:00</time>
      </trkpt>
      <trkpt lat="44.64488" lon="4.49052">
        <ele>637</ele>
        <time>2021-02-22T10:10:47+01:00</time>
      </trkpt>
      <trkpt lat="44.64522" lon="4.49061">
        <ele>639</ele>
        <time>2021-02-22T10:10:52+01:00</time>
      </trkpt>
      <trkpt lat="44.64603" lon="4.49082">
        <ele>645</ele>
        <time>2021-02-22T10:10:57+01:00</time>
      </trkpt>
      <trkpt lat="44.64642" lon="4.49089">
        <ele>646</ele>
        <time>2021-02-22T10:11:02+01:00</time>
      </trkpt>
      <trkpt lat="44.64704" lon="4.49114">
        <ele>647</ele>
        <time>2021-02-22T10:11:07+01:00</time>
      </trkpt>
      <trkpt lat="44.64781" lon="4.49135">
        <ele>653</ele>
        <time>2021-02-22T10:11:12+01:00</time>
      </trkpt>
      <trkpt lat="44.64801" lon="4.4914">
        <ele>655</ele>
        <time>2021-02-22T10:11:17+01:00</time>
      </trkpt>
      <trkpt lat="44.64824" lon="4.49151">
        <ele>657</ele>
        <time>2021-02-22T10:11:22+01:00</time>
      </trkpt>
      <trkpt lat="44.64874" lon="4.49202">
        <ele>656</ele>
        <time>2021-02-22T10:11:27+01:00</time>
      </trkpt>
      <trkpt lat="44.64903" lon="4.49214">
        <ele>658</ele>
        <time>2021-02-22T10:11:32+01:00</time>
      </trkpt>
      <trkpt lat="44.64907" lon="4.49197">
        <ele>662</ele>
        <time>2021-02-22T10:11:37+01:00</time>
      </trkpt>
      <trkpt lat="44.64909" lon="4.49172">
        <ele>669</ele>
        <time>2021-02-22T10:11:42+01:00</time>
      </trkpt>
      <trkpt lat="44.64921" lon="4.49148">
        <ele>673</ele>
        <time>2021-02-22T10:11:47+01:00</time>
      </trkpt>
      <trkpt lat="44.64934" lon="4.49147">
        <ele>673</ele>
        <time>2021-02-22T10:11:52+01:00</time>
      </trkpt>
      <trkpt lat="44.64945" lon="4.49153">
        <ele>674</ele>
        <time>2021-02-22T10:11:57+01:00</time>
      </trkpt>
      <trkpt lat="44.64968" lon="4.49141">
        <ele>676</ele>
        <time>2021-02-22T10:12:02+01:00</time>
      </trkpt>
      <trkpt lat="44.64983" lon="4.49137">
        <ele>677</ele>
        <time>2021-02-22T10:12:07+01:00</time>
      </trkpt>
      <trkpt lat="44.64996" lon="4.49121">
        <ele>679</ele>
        <time>2021-02-22T10:12:12+01:00</time>
      </trkpt>
      <trkpt lat="44.64989" lon="4.49096">
        <ele>679</ele>
        <time>2021-02-22T10:12:17+01:00</time>
      </trkpt>
      <trkpt lat="44.64979" lon="4.49072">
        <ele>677</ele>
        <time>2021-02-22T10:12:22+01:00</time>
      </trkpt>
      <trkpt lat="44.64988" lon="4.49041">
        <ele>673</ele>
        <time>2021-02-22T10:12:27+01:00</time>
      </trkpt>
      <trkpt lat="44.64998" lon="4.49019">
        <ele>671</ele>
        <time>2021-02-22T10:12:32+01:00</time>
      </trkpt>
      <trkpt lat="44.65001" lon="4.48991">
        <ele>665</ele>
        <time>2021-02-22T10:12:37+01:00</time>
      </trkpt>
      <trkpt lat="44.65006" lon="4.48966">
        <ele>656</ele>
        <time>2021-02-22T10:12:42+01:00</time>
      </trkpt>
      <trkpt lat="44.65017" lon="4.48963">
        <ele>656</ele>
        <time>2021-02-22T10:12:47+01:00</time>
      </trkpt>
      <trkpt lat="44.65032" lon="4.48962">
        <ele>655</ele>
        <time>2021-02-22T10:12:52+01:00</time>
      </trkpt>
      <trkpt lat="44.65045" lon="4.48967">
        <ele>658</ele>
        <time>2021-02-22T10:12:57+01:00</time>
      </trkpt>
      <trkpt lat="44.65058" lon="4.48973">
        <ele>660</ele>
        <time>2021-02-22T10:13:02+01:00</time>
      </trkpt>
      <trkpt lat="44.65072" lon="4.48974">
        <ele>661</ele>
        <time>2021-02-22T10:13:07+01:00</time>
      </trkpt>
      <trkpt lat="44.65091" lon="4.48968">
        <ele>661</ele>
        <time>2021-02-22T10:13:12+01:00</time>
      </trkpt>
      <trkpt lat="44.65107" lon="4.48953">
        <ele>657</ele>
        <time>2021-02-22T10:13:17+01:00</time>
      </trkpt>
      <trkpt lat="44.65119" lon="4.48946">
        <ele>656</ele>
        <time>2021-02-22T10:13:22+01:00</time>
      </trkpt>
      <trkpt lat="44.65132" lon="4.48929">
        <ele>651</ele>
        <time>2021-02-22T10:13:27+01:00</time>
      </trkpt>
      <trkpt lat="44.65146" lon="4.48915">
        <ele>648</ele>
        <time>2021-02-22T10:13:32+01:00</time>
      </trkpt>
      <trkpt lat="44.65159" lon="4.48901">
        <ele>644</ele>
        <time>2021-02-22T10:13:37+01:00</time>
      </trkpt>
      <trkpt lat="44.65172" lon="4.48886">
        <ele>640</ele>
        <time>2021-02-22T10:13:42+01:00</time>
      </trkpt>
      <trkpt lat="44.65194" lon="4.48879">
        <ele>639</ele>
        <time>2021-02-22T10:13:47+01:00</time>
      </trkpt>
      <trkpt lat="44.65209" lon="4.48863">
        <ele>633</ele>
        <time>2021-02-22T10:13:52+01:00</time>
      </trkpt>
      <trkpt lat="44.6523" lon="4.48863">
        <ele>634</ele>
        <time>2021-02-22T10:13:57+01:00</time>
      </trkpt>
      <trkpt lat="44.65251" lon="4.48857">
        <ele>634</ele>
        <time>2021-02-22T10:14:02+01:00</time>
      </trkpt>
      <trkpt lat="44.65245" lon="4.48838">
        <ele>625</ele>
        <time>2021-02-22T10:14:07+01:00</time>
      </trkpt>
      <trkpt lat="44.65248" lon="4.48825">
        <ele>621</ele>
        <time>2021-02-22T10:14:12+01:00</time>
      </trkpt>
      <trkpt lat="44.65265" lon="4.48807">
        <ele>619</ele>
        <time>2021-02-22T10:14:17+01:00</time>
      </trkpt>
      <trkpt lat="44.6528" lon="4.48788">
        <ele>617</ele>
        <time>2021-02-22T10:14:22+01:00</time>
      </trkpt>
      <trkpt lat="44.65308" lon="4.48782">
        <ele>619</ele>
        <time>2021-02-22T10:14:27+01:00</time>
      </trkpt>
      <trkpt lat="44.65333" lon="4.4878">
        <ele>622</ele>
        <time>2021-02-22T10:14:32+01:00</time>
      </trkpt>
      <trkpt lat="44.65353" lon="4.48761">
        <ele>623</ele>
        <time>2021-02-22T10:14:37+01:00</time>
      </trkpt>
      <trkpt lat="44.65362" lon="4.48751">
        <ele>622</ele>
        <time>2021-02-22T10:14:42+01:00</time>
      </trkpt>
      <trkpt lat="44.65369" lon="4.48734">
        <ele>621</ele>
        <time>2021-02-22T10:14:47+01:00</time>
      </trkpt>
      <trkpt lat="44.6538" lon="4.4871">
        <ele>618</ele>
        <time>2021-02-22T10:14:52+01:00</time>
      </trkpt>
      <trkpt lat="44.65389" lon="4.4869">
        <ele>615</ele>
        <time>2021-02-22T10:14:57+01:00</time>
      </trkpt>
      <trkpt lat="44.65351" lon="4.48712">
        <ele>612</ele>
        <time>2021-02-22T10:15:02+01:00</time>
      </trkpt>
      <trkpt lat="44.65313" lon="4.48729">
        <ele>607</ele>
        <time>2021-02-22T10:15:07+01:00</time>
      </trkpt>
      <trkpt lat="44.65288" lon="4.4873">
        <ele>605</ele>
        <time>2021-02-22T10:15:12+01:00</time>
      </trkpt>
      <trkpt lat="44.65267" lon="4.48723">
        <ele>601</ele>
        <time>2021-02-22T10:15:17+01:00</time>
      </trkpt>
      <trkpt lat="44.65245" lon="4.48717">
        <ele>598</ele>
        <time>2021-02-22T10:15:22+01:00</time>
      </trkpt>
      <trkpt lat="44.65239" lon="4.48714">
        <ele>597</ele>
        <time>2021-02-22T10:15:27+01:00</time>
      </trkpt>
      <trkpt lat="44.6522" lon="4.48709">
        <ele>595</ele>
        <time>2021-02-22T10:15:32+01:00</time>
      </trkpt>
      <trkpt lat="44.65207" lon="4.48703">
        <ele>593</ele>
        <time>2021-02-22T10:15:37+01:00</time>
      </trkpt>
      <trkpt lat="44.65193" lon="4.48684">
        <ele>590</ele>
        <time>2021-02-22T10:15:42+01:00</time>
      </trkpt>
      <trkpt lat="44.65187" lon="4.4867">
        <ele>587</ele>
        <time>2021-02-22T10:15:47+01:00</time>
      </trkpt>
      <trkpt lat="44.65173" lon="4.48662">
        <ele>585</ele>
        <time>2021-02-22T10:15:52+01:00</time>
      </trkpt>
      <trkpt lat="44.65167" lon="4.48635">
        <ele>583</ele>
        <time>2021-02-22T10:15:57+01:00</time>
      </trkpt>
      <trkpt lat="44.65158" lon="4.48599">
        <ele>580</ele>
        <time>2021-02-22T10:16:02+01:00</time>
      </trkpt>
      <trkpt lat="44.65147" lon="4.48573">
        <ele>577</ele>
        <time>2021-02-22T10:16:07+01:00</time>
      </trkpt>
      <trkpt lat="44.65139" lon="4.48542">
        <ele>574</ele>
        <time>2021-02-22T10:16:12+01:00</time>
      </trkpt>
      <trkpt lat="44.65154" lon="4.48514">
        <ele>573</ele>
        <time>2021-02-22T10:16:17+01:00</time>
      </trkpt>
      <trkpt lat="44.65164" lon="4.48504">
        <ele>573</ele>
        <time>2021-02-22T10:16:22+01:00</time>
      </trkpt>
      <trkpt lat="44.6519" lon="4.48487">
        <ele>573</ele>
        <time>2021-02-22T10:16:27+01:00</time>
      </trkpt>
      <trkpt lat="44.65215" lon="4.48479">
        <ele>575</ele>
        <time>2021-02-22T10:16:32+01:00</time>
      </trkpt>
      <trkpt lat="44.65229" lon="4.4848">
        <ele>576</ele>
        <time>2021-02-22T10:16:37+01:00</time>
      </trkpt>
      <trkpt lat="44.65239" lon="4.48477">
        <ele>576</ele>
        <time>2021-02-22T10:16:42+01:00</time>
      </trkpt>
      <trkpt lat="44.65252" lon="4.48443">
        <ele>576</ele>
        <time>2021-02-22T10:16:47+01:00</time>
      </trkpt>
      <trkpt lat="44.65258" lon="4.48408">
        <ele>575</ele>
        <time>2021-02-22T10:16:52+01:00</time>
      </trkpt>
      <trkpt lat="44.6527" lon="4.48398">
        <ele>576</ele>
        <time>2021-02-22T10:16:57+01:00</time>
      </trkpt>
      <trkpt lat="44.65285" lon="4.48393">
        <ele>578</ele>
        <time>2021-02-22T10:17:02+01:00</time>
      </trkpt>
      <trkpt lat="44.65298" lon="4.48379">
        <ele>579</ele>
        <time>2021-02-22T10:17:07+01:00</time>
      </trkpt>
      <trkpt lat="44.65309" lon="4.48364">
        <ele>579</ele>
        <time>2021-02-22T10:17:12+01:00</time>
      </trkpt>
      <trkpt lat="44.65327" lon="4.48334">
        <ele>579</ele>
        <time>2021-02-22T10:17:17+01:00</time>
      </trkpt>
      <trkpt lat="44.65334" lon="4.48316">
        <ele>578</ele>
        <time>2021-02-22T10:17:22+01:00</time>
      </trkpt>
      <trkpt lat="44.65344" lon="4.48294">
        <ele>576</ele>
        <time>2021-02-22T10:17:27+01:00</time>
      </trkpt>
      <trkpt lat="44.65368" lon="4.48268">
        <ele>575</ele>
        <time>2021-02-22T10:17:32+01:00</time>
      </trkpt>
      <trkpt lat="44.65393" lon="4.48246">
        <ele>575</ele>
        <time>2021-02-22T10:17:37+01:00</time>
      </trkpt>
      <trkpt lat="44.65416" lon="4.48241">
        <ele>577</ele>
        <time>2021-02-22T10:17:42+01:00</time>
      </trkpt>
      <trkpt lat="44.65439" lon="4.4824">
        <ele>578</ele>
        <time>2021-02-22T10:17:47+01:00</time>
      </trkpt>
      <trkpt lat="44.65449" lon="4.48216">
        <ele>576</ele>
        <time>2021-02-22T10:17:52+01:00</time>
      </trkpt>
      <trkpt lat="44.6546" lon="4.4819">
        <ele>574</ele>
        <time>2021-02-22T10:17:57+01:00</time>
      </trkpt>
      <trkpt lat="44.65479" lon="4.48171">
        <ele>573</ele>
        <time>2021-02-22T10:18:02+01:00</time>
      </trkpt>
      <trkpt lat="44.65494" lon="4.48148">
        <ele>571</ele>
        <time>2021-02-22T10:18:07+01:00</time>
      </trkpt>
      <trkpt lat="44.65506" lon="4.48127">
        <ele>570</ele>
        <time>2021-02-22T10:18:12+01:00</time>
      </trkpt>
      <trkpt lat="44.65522" lon="4.48107">
        <ele>569</ele>
        <time>2021-02-22T10:18:17+01:00</time>
      </trkpt>
      <trkpt lat="44.65543" lon="4.48097">
        <ele>571</ele>
        <time>2021-02-22T10:18:22+01:00</time>
      </trkpt>
      <trkpt lat="44.6555" lon="4.48084">
        <ele>570</ele>
        <time>2021-02-22T10:18:27+01:00</time>
      </trkpt>
      <trkpt lat="44.65573" lon="4.48066">
        <ele>572</ele>
        <time>2021-02-22T10:18:32+01:00</time>
      </trkpt>
      <trkpt lat="44.65595" lon="4.48053">
        <ele>573</ele>
        <time>2021-02-22T10:18:37+01:00</time>
      </trkpt>
      <trkpt lat="44.65615" lon="4.48045">
        <ele>574</ele>
        <time>2021-02-22T10:18:42+01:00</time>
      </trkpt>
      <trkpt lat="44.65643" lon="4.48045">
        <ele>577</ele>
        <time>2021-02-22T10:18:47+01:00</time>
      </trkpt>
      <trkpt lat="44.65657" lon="4.4804">
        <ele>578</ele>
        <time>2021-02-22T10:18:52+01:00</time>
      </trkpt>
      <trkpt lat="44.65678" lon="4.48027">
        <ele>577</ele>
        <time>2021-02-22T10:18:57+01:00</time>
      </trkpt>
      <trkpt lat="44.65694" lon="4.48018">
        <ele>577</ele>
        <time>2021-02-22T10:19:02+01:00</time>
      </trkpt>
      <trkpt lat="44.65716" lon="4.4802">
        <ele>580</ele>
        <time>2021-02-22T10:19:07+01:00</time>
      </trkpt>
      <trkpt lat="44.65731" lon="4.48024">
        <ele>582</ele>
        <time>2021-02-22T10:19:12+01:00</time>
      </trkpt>
      <trkpt lat="44.65744" lon="4.48026">
        <ele>584</ele>
        <time>2021-02-22T10:19:17+01:00</time>
      </trkpt>
      <trkpt lat="44.65758" lon="4.48022">
        <ele>584</ele>
        <time>2021-02-22T10:19:22+01:00</time>
      </trkpt>
      <trkpt lat="44.65789" lon="4.48004">
        <ele>583</ele>
        <time>2021-02-22T10:19:27+01:00</time>
      </trkpt>
      <trkpt lat="44.65846" lon="4.4799">
        <ele>582</ele>
        <time>2021-02-22T10:19:32+01:00</time>
      </trkpt>
      <trkpt lat="44.65876" lon="4.47993">
        <ele>582</ele>
        <time>2021-02-22T10:19:37+01:00</time>
      </trkpt>
      <trkpt lat="44.65916" lon="4.48007">
        <ele>584</ele>
        <time>2021-02-22T10:19:42+01:00</time>
      </trkpt>
      <trkpt lat="44.65956" lon="4.48016">
        <ele>585</ele>
        <time>2021-02-22T10:19:47+01:00</time>
      </trkpt>
      <trkpt lat="44.65972" lon="4.48014">
        <ele>585</ele>
        <time>2021-02-22T10:19:52+01:00</time>
      </trkpt>
      <trkpt lat="44.65987" lon="4.48004">
        <ele>582</ele>
        <time>2021-02-22T10:19:57+01:00</time>
      </trkpt>
      <trkpt lat="44.66004" lon="4.47993">
        <ele>580</ele>
        <time>2021-02-22T10:20:02+01:00</time>
      </trkpt>
      <trkpt lat="44.66017" lon="4.47986">
        <ele>579</ele>
        <time>2021-02-22T10:20:07+01:00</time>
      </trkpt>
      <trkpt lat="44.66028" lon="4.47992">
        <ele>581</ele>
        <time>2021-02-22T10:20:12+01:00</time>
      </trkpt>
      <trkpt lat="44.6604" lon="4.47987">
        <ele>581</ele>
        <time>2021-02-22T10:20:17+01:00</time>
      </trkpt>
      <trkpt lat="44.66047" lon="4.47976">
        <ele>579</ele>
        <time>2021-02-22T10:20:22+01:00</time>
      </trkpt>
      <trkpt lat="44.6607" lon="4.47972">
        <ele>579</ele>
        <time>2021-02-22T10:20:27+01:00</time>
      </trkpt>
      <trkpt lat="44.66082" lon="4.47967">
        <ele>578</ele>
        <time>2021-02-22T10:20:32+01:00</time>
      </trkpt>
      <trkpt lat="44.66104" lon="4.4797">
        <ele>579</ele>
        <time>2021-02-22T10:20:37+01:00</time>
      </trkpt>
      <trkpt lat="44.6612" lon="4.47979">
        <ele>580</ele>
        <time>2021-02-22T10:20:42+01:00</time>
      </trkpt>
      <trkpt lat="44.66134" lon="4.47991">
        <ele>583</ele>
        <time>2021-02-22T10:20:47+01:00</time>
      </trkpt>
      <trkpt lat="44.66147" lon="4.47997">
        <ele>584</ele>
        <time>2021-02-22T10:20:52+01:00</time>
      </trkpt>
      <trkpt lat="44.66162" lon="4.4799">
        <ele>582</ele>
        <time>2021-02-22T10:20:57+01:00</time>
      </trkpt>
      <trkpt lat="44.66189" lon="4.47983">
        <ele>584</ele>
        <time>2021-02-22T10:21:02+01:00</time>
      </trkpt>
      <trkpt lat="44.66216" lon="4.47934">
        <ele>577</ele>
        <time>2021-02-22T10:21:07+01:00</time>
      </trkpt>
      <trkpt lat="44.66227" lon="4.47915">
        <ele>574</ele>
        <time>2021-02-22T10:21:12+01:00</time>
      </trkpt>
      <trkpt lat="44.66239" lon="4.47906">
        <ele>574</ele>
        <time>2021-02-22T10:21:17+01:00</time>
      </trkpt>
      <trkpt lat="44.66257" lon="4.47899">
        <ele>576</ele>
        <time>2021-02-22T10:21:22+01:00</time>
      </trkpt>
      <trkpt lat="44.66282" lon="4.47897">
        <ele>579</ele>
        <time>2021-02-22T10:21:27+01:00</time>
      </trkpt>
      <trkpt lat="44.66295" lon="4.47891">
        <ele>579</ele>
        <time>2021-02-22T10:21:32+01:00</time>
      </trkpt>
      <trkpt lat="44.6631" lon="4.47869">
        <ele>579</ele>
        <time>2021-02-22T10:21:37+01:00</time>
      </trkpt>
      <trkpt lat="44.66304" lon="4.47851">
        <ele>576</ele>
        <time>2021-02-22T10:21:42+01:00</time>
      </trkpt>
      <trkpt lat="44.66293" lon="4.4783">
        <ele>572</ele>
        <time>2021-02-22T10:21:47+01:00</time>
      </trkpt>
      <trkpt lat="44.66286" lon="4.47809">
        <ele>572</ele>
        <time>2021-02-22T10:21:52+01:00</time>
      </trkpt>
      <trkpt lat="44.66276" lon="4.47783">
        <ele>571</ele>
        <time>2021-02-22T10:21:57+01:00</time>
      </trkpt>
      <trkpt lat="44.66261" lon="4.4776">
        <ele>571</ele>
        <time>2021-02-22T10:22:02+01:00</time>
      </trkpt>
      <trkpt lat="44.66257" lon="4.47743">
        <ele>571</ele>
        <time>2021-02-22T10:22:07+01:00</time>
      </trkpt>
      <trkpt lat="44.66261" lon="4.4772">
        <ele>571</ele>
        <time>2021-02-22T10:22:12+01:00</time>
      </trkpt>
      <trkpt lat="44.66273" lon="4.47694">
        <ele>572</ele>
        <time>2021-02-22T10:22:17+01:00</time>
      </trkpt>
      <trkpt lat="44.66273" lon="4.4767">
        <ele>572</ele>
        <time>2021-02-22T10:22:22+01:00</time>
      </trkpt>
      <trkpt lat="44.66276" lon="4.47644">
        <ele>567</ele>
        <time>2021-02-22T10:22:27+01:00</time>
      </trkpt>
      <trkpt lat="44.66249" lon="4.47628">
        <ele>563</ele>
        <time>2021-02-22T10:22:32+01:00</time>
      </trkpt>
      <trkpt lat="44.66224" lon="4.47603">
        <ele>558</ele>
        <time>2021-02-22T10:22:37+01:00</time>
      </trkpt>
      <trkpt lat="44.66173" lon="4.47568">
        <ele>558</ele>
        <time>2021-02-22T10:22:42+01:00</time>
      </trkpt>
      <trkpt lat="44.66143" lon="4.47553">
        <ele>555</ele>
        <time>2021-02-22T10:22:47+01:00</time>
      </trkpt>
      <trkpt lat="44.66131" lon="4.47542">
        <ele>554</ele>
        <time>2021-02-22T10:22:52+01:00</time>
      </trkpt>
      <trkpt lat="44.66116" lon="4.47524">
        <ele>552</ele>
        <time>2021-02-22T10:22:57+01:00</time>
      </trkpt>
      <trkpt lat="44.66096" lon="4.47507">
        <ele>550</ele>
        <time>2021-02-22T10:23:02+01:00</time>
      </trkpt>
      <trkpt lat="44.66042" lon="4.47452">
        <ele>546</ele>
        <time>2021-02-22T10:23:07+01:00</time>
      </trkpt>
      <trkpt lat="44.66019" lon="4.47422">
        <ele>546</ele>
        <time>2021-02-22T10:23:12+01:00</time>
      </trkpt>
      <trkpt lat="44.65991" lon="4.47402">
        <ele>542</ele>
        <time>2021-02-22T10:23:17+01:00</time>
      </trkpt>
      <trkpt lat="44.65967" lon="4.47387">
        <ele>538</ele>
        <time>2021-02-22T10:23:22+01:00</time>
      </trkpt>
      <trkpt lat="44.65924" lon="4.47387">
        <ele>535</ele>
        <time>2021-02-22T10:23:27+01:00</time>
      </trkpt>
      <trkpt lat="44.65898" lon="4.47372">
        <ele>532</ele>
        <time>2021-02-22T10:23:32+01:00</time>
      </trkpt>
      <trkpt lat="44.65827" lon="4.47356">
        <ele>527</ele>
        <time>2021-02-22T10:23:37+01:00</time>
      </trkpt>
      <trkpt lat="44.65793" lon="4.47402">
        <ele>526</ele>
        <time>2021-02-22T10:23:42+01:00</time>
      </trkpt>
      <trkpt lat="44.65768" lon="4.47423">
        <ele>524</ele>
        <time>2021-02-22T10:23:47+01:00</time>
      </trkpt>
      <trkpt lat="44.65786" lon="4.47408">
        <ele>526</ele>
        <time>2021-02-22T10:23:52+01:00</time>
      </trkpt>
      <trkpt lat="44.6581" lon="4.47379">
        <ele>527</ele>
        <time>2021-02-22T10:23:57+01:00</time>
      </trkpt>
      <trkpt lat="44.65828" lon="4.47358">
        <ele>527</ele>
        <time>2021-02-22T10:24:02+01:00</time>
      </trkpt>
      <trkpt lat="44.65819" lon="4.47347">
        <ele>526</ele>
        <time>2021-02-22T10:24:07+01:00</time>
      </trkpt>
      <trkpt lat="44.65805" lon="4.47339">
        <ele>525</ele>
        <time>2021-02-22T10:24:12+01:00</time>
      </trkpt>
      <trkpt lat="44.65729" lon="4.47326">
        <ele>518</ele>
        <time>2021-02-22T10:24:17+01:00</time>
      </trkpt>
      <trkpt lat="44.65699" lon="4.47335">
        <ele>517</ele>
        <time>2021-02-22T10:24:22+01:00</time>
      </trkpt>
      <trkpt lat="44.65651" lon="4.47337">
        <ele>515</ele>
        <time>2021-02-22T10:24:27+01:00</time>
      </trkpt>
      <trkpt lat="44.65597" lon="4.47313">
        <ele>510</ele>
        <time>2021-02-22T10:24:32+01:00</time>
      </trkpt>
      <trkpt lat="44.65535" lon="4.47306">
        <ele>509</ele>
        <time>2021-02-22T10:24:37+01:00</time>
      </trkpt>
      <trkpt lat="44.65444" lon="4.47282">
        <ele>509</ele>
        <time>2021-02-22T10:24:42+01:00</time>
      </trkpt>
      <trkpt lat="44.65408" lon="4.47257">
        <ele>507</ele>
        <time>2021-02-22T10:24:47+01:00</time>
      </trkpt>
      <trkpt lat="44.65375" lon="4.47241">
        <ele>506</ele>
        <time>2021-02-22T10:24:52+01:00</time>
      </trkpt>
      <trkpt lat="44.65341" lon="4.47205">
        <ele>502</ele>
        <time>2021-02-22T10:24:57+01:00</time>
      </trkpt>
      <trkpt lat="44.65307" lon="4.47187">
        <ele>503</ele>
        <time>2021-02-22T10:25:02+01:00</time>
      </trkpt>
      <trkpt lat="44.65263" lon="4.47156">
        <ele>503</ele>
        <time>2021-02-22T10:25:07+01:00</time>
      </trkpt>
      <trkpt lat="44.6524" lon="4.47133">
        <ele>500</ele>
        <time>2021-02-22T10:25:12+01:00</time>
      </trkpt>
      <trkpt lat="44.65197" lon="4.47105">
        <ele>498</ele>
        <time>2021-02-22T10:25:17+01:00</time>
      </trkpt>
      <trkpt lat="44.65152" lon="4.47085">
        <ele>499</ele>
        <time>2021-02-22T10:25:22+01:00</time>
      </trkpt>
      <trkpt lat="44.65113" lon="4.47056">
        <ele>496</ele>
        <time>2021-02-22T10:25:27+01:00</time>
      </trkpt>
      <trkpt lat="44.65089" lon="4.47039">
        <ele>495</ele>
        <time>2021-02-22T10:25:32+01:00</time>
      </trkpt>
      <trkpt lat="44.65058" lon="4.47029">
        <ele>494</ele>
        <time>2021-02-22T10:25:37+01:00</time>
      </trkpt>
      <trkpt lat="44.65041" lon="4.47012">
        <ele>492</ele>
        <time>2021-02-22T10:25:42+01:00</time>
      </trkpt>
      <trkpt lat="44.65049" lon="4.47001">
        <ele>490</ele>
        <time>2021-02-22T10:25:47+01:00</time>
      </trkpt>
      <trkpt lat="44.65058" lon="4.4699">
        <ele>488</ele>
        <time>2021-02-22T10:25:52+01:00</time>
      </trkpt>
      <trkpt lat="44.65066" lon="4.46985">
        <ele>487</ele>
        <time>2021-02-22T10:25:57+01:00</time>
      </trkpt>
      <trkpt lat="44.65085" lon="4.46991">
        <ele>488</ele>
        <time>2021-02-22T10:26:02+01:00</time>
      </trkpt>
      <trkpt lat="44.65102" lon="4.47">
        <ele>487</ele>
        <time>2021-02-22T10:26:07+01:00</time>
      </trkpt>
      <trkpt lat="44.65121" lon="4.47009">
        <ele>487</ele>
        <time>2021-02-22T10:26:12+01:00</time>
      </trkpt>
      <trkpt lat="44.65132" lon="4.47015">
        <ele>488</ele>
        <time>2021-02-22T10:26:17+01:00</time>
      </trkpt>
      <trkpt lat="44.65156" lon="4.47026">
        <ele>488</ele>
        <time>2021-02-22T10:26:22+01:00</time>
      </trkpt>
      <trkpt lat="44.65172" lon="4.47035">
        <ele>488</ele>
        <time>2021-02-22T10:26:27+01:00</time>
      </trkpt>
      <trkpt lat="44.65195" lon="4.47051">
        <ele>487</ele>
        <time>2021-02-22T10:26:32+01:00</time>
      </trkpt>
      <trkpt lat="44.65206" lon="4.47056">
        <ele>486</ele>
        <time>2021-02-22T10:26:37+01:00</time>
      </trkpt>
      <trkpt lat="44.65224" lon="4.4707">
        <ele>487</ele>
        <time>2021-02-22T10:26:42+01:00</time>
      </trkpt>
      <trkpt lat="44.65242" lon="4.47076">
        <ele>485</ele>
        <time>2021-02-22T10:26:47+01:00</time>
      </trkpt>
      <trkpt lat="44.65267" lon="4.47084">
        <ele>484</ele>
        <time>2021-02-22T10:26:52+01:00</time>
      </trkpt>
      <trkpt lat="44.65289" lon="4.47091">
        <ele>482</ele>
        <time>2021-02-22T10:26:57+01:00</time>
      </trkpt>
      <trkpt lat="44.65313" lon="4.47108">
        <ele>483</ele>
        <time>2021-02-22T10:27:02+01:00</time>
      </trkpt>
      <trkpt lat="44.65345" lon="4.47107">
        <ele>479</ele>
        <time>2021-02-22T10:27:07+01:00</time>
      </trkpt>
      <trkpt lat="44.65362" lon="4.47107">
        <ele>477</ele>
        <time>2021-02-22T10:27:12+01:00</time>
      </trkpt>
      <trkpt lat="44.65384" lon="4.4711">
        <ele>475</ele>
        <time>2021-02-22T10:27:17+01:00</time>
      </trkpt>
      <trkpt lat="44.65413" lon="4.4711">
        <ele>472</ele>
        <time>2021-02-22T10:27:22+01:00</time>
      </trkpt>
      <trkpt lat="44.65441" lon="4.47111">
        <ele>469</ele>
        <time>2021-02-22T10:27:27+01:00</time>
      </trkpt>
      <trkpt lat="44.65457" lon="4.47119">
        <ele>470</ele>
        <time>2021-02-22T10:27:32+01:00</time>
      </trkpt>
      <trkpt lat="44.65471" lon="4.47132">
        <ele>472</ele>
        <time>2021-02-22T10:27:37+01:00</time>
      </trkpt>
      <trkpt lat="44.65485" lon="4.47148">
        <ele>474</ele>
        <time>2021-02-22T10:27:42+01:00</time>
      </trkpt>
      <trkpt lat="44.65503" lon="4.47159">
        <ele>476</ele>
        <time>2021-02-22T10:27:47+01:00</time>
      </trkpt>
      <trkpt lat="44.65515" lon="4.47161">
        <ele>475</ele>
        <time>2021-02-22T10:27:52+01:00</time>
      </trkpt>
      <trkpt lat="44.65528" lon="4.4716">
        <ele>474</ele>
        <time>2021-02-22T10:27:57+01:00</time>
      </trkpt>
      <trkpt lat="44.65577" lon="4.47133">
        <ele>463</ele>
        <time>2021-02-22T10:28:02+01:00</time>
      </trkpt>
      <trkpt lat="44.6561" lon="4.47128">
        <ele>460</ele>
        <time>2021-02-22T10:28:07+01:00</time>
      </trkpt>
      <trkpt lat="44.65642" lon="4.47126">
        <ele>459</ele>
        <time>2021-02-22T10:28:12+01:00</time>
      </trkpt>
      <trkpt lat="44.65652" lon="4.47128">
        <ele>459</ele>
        <time>2021-02-22T10:28:17+01:00</time>
      </trkpt>
      <trkpt lat="44.65665" lon="4.47121">
        <ele>457</ele>
        <time>2021-02-22T10:28:22+01:00</time>
      </trkpt>
      <trkpt lat="44.65706" lon="4.47105">
        <ele>454</ele>
        <time>2021-02-22T10:28:27+01:00</time>
      </trkpt>
      <trkpt lat="44.65743" lon="4.47098">
        <ele>454</ele>
        <time>2021-02-22T10:28:32+01:00</time>
      </trkpt>
      <trkpt lat="44.65761" lon="4.47085">
        <ele>451</ele>
        <time>2021-02-22T10:28:37+01:00</time>
      </trkpt>
      <trkpt lat="44.65776" lon="4.47074">
        <ele>448</ele>
        <time>2021-02-22T10:28:42+01:00</time>
      </trkpt>
      <trkpt lat="44.65838" lon="4.4707">
        <ele>448</ele>
        <time>2021-02-22T10:28:47+01:00</time>
      </trkpt>
      <trkpt lat="44.65902" lon="4.47067">
        <ele>445</ele>
        <time>2021-02-22T10:28:52+01:00</time>
      </trkpt>
      <trkpt lat="44.65931" lon="4.47065">
        <ele>444</ele>
        <time>2021-02-22T10:28:57+01:00</time>
      </trkpt>
      <trkpt lat="44.65958" lon="4.47056">
        <ele>444</ele>
        <time>2021-02-22T10:29:02+01:00</time>
      </trkpt>
      <trkpt lat="44.66002" lon="4.47039">
        <ele>444</ele>
        <time>2021-02-22T10:29:07+01:00</time>
      </trkpt>
      <trkpt lat="44.66029" lon="4.47031">
        <ele>443</ele>
        <time>2021-02-22T10:29:12+01:00</time>
      </trkpt>
      <trkpt lat="44.66049" lon="4.4703">
        <ele>443</ele>
        <time>2021-02-22T10:29:17+01:00</time>
      </trkpt>
      <trkpt lat="44.66064" lon="4.47027">
        <ele>443</ele>
        <time>2021-02-22T10:29:22+01:00</time>
      </trkpt>
      <trkpt lat="44.66082" lon="4.47025">
        <ele>443</ele>
        <time>2021-02-22T10:29:27+01:00</time>
      </trkpt>
      <trkpt lat="44.66096" lon="4.47022">
        <ele>443</ele>
        <time>2021-02-22T10:29:32+01:00</time>
      </trkpt>
      <trkpt lat="44.66112" lon="4.47015">
        <ele>444</ele>
        <time>2021-02-22T10:29:37+01:00</time>
      </trkpt>
      <trkpt lat="44.66134" lon="4.47028">
        <ele>446</ele>
        <time>2021-02-22T10:29:42+01:00</time>
      </trkpt>
      <trkpt lat="44.66157" lon="4.47046">
        <ele>445</ele>
        <time>2021-02-22T10:29:47+01:00</time>
      </trkpt>
      <trkpt lat="44.66189" lon="4.47064">
        <ele>448</ele>
        <time>2021-02-22T10:29:52+01:00</time>
      </trkpt>
      <trkpt lat="44.66205" lon="4.47065">
        <ele>452</ele>
        <time>2021-02-22T10:29:57+01:00</time>
      </trkpt>
      <trkpt lat="44.66212" lon="4.47059">
        <ele>454</ele>
        <time>2021-02-22T10:30:02+01:00</time>
      </trkpt>
      <trkpt lat="44.66231" lon="4.47045">
        <ele>459</ele>
        <time>2021-02-22T10:30:07+01:00</time>
      </trkpt>
      <trkpt lat="44.66249" lon="4.47055">
        <ele>462</ele>
        <time>2021-02-22T10:30:12+01:00</time>
      </trkpt>
      <trkpt lat="44.6625" lon="4.47084">
        <ele>460</ele>
        <time>2021-02-22T10:30:17+01:00</time>
      </trkpt>
      <trkpt lat="44.66249" lon="4.47104">
        <ele>459</ele>
        <time>2021-02-22T10:30:22+01:00</time>
      </trkpt>
      <trkpt lat="44.66252" lon="4.47125">
        <ele>458</ele>
        <time>2021-02-22T10:30:27+01:00</time>
      </trkpt>
      <trkpt lat="44.66261" lon="4.47147">
        <ele>459</ele>
        <time>2021-02-22T10:30:32+01:00</time>
      </trkpt>
      <trkpt lat="44.66292" lon="4.47162">
        <ele>466</ele>
        <time>2021-02-22T10:30:37+01:00</time>
      </trkpt>
      <trkpt lat="44.66329" lon="4.47184">
        <ele>472</ele>
        <time>2021-02-22T10:30:42+01:00</time>
      </trkpt>
      <trkpt lat="44.66363" lon="4.472">
        <ele>474</ele>
        <time>2021-02-22T10:30:47+01:00</time>
      </trkpt>
      <trkpt lat="44.66382" lon="4.47204">
        <ele>476</ele>
        <time>2021-02-22T10:30:52+01:00</time>
      </trkpt>
      <trkpt lat="44.66389" lon="4.47189">
        <ele>481</ele>
        <time>2021-02-22T10:30:57+01:00</time>
      </trkpt>
      <trkpt lat="44.66392" lon="4.47172">
        <ele>486</ele>
        <time>2021-02-22T10:31:02+01:00</time>
      </trkpt>
      <trkpt lat="44.66394" lon="4.47141">
        <ele>491</ele>
        <time>2021-02-22T10:31:07+01:00</time>
      </trkpt>
      <trkpt lat="44.664" lon="4.4713">
        <ele>494</ele>
        <time>2021-02-22T10:31:12+01:00</time>
      </trkpt>
      <trkpt lat="44.66427" lon="4.4714">
        <ele>497</ele>
        <time>2021-02-22T10:31:17+01:00</time>
      </trkpt>
      <trkpt lat="44.66442" lon="4.47149">
        <ele>498</ele>
        <time>2021-02-22T10:31:22+01:00</time>
      </trkpt>
      <trkpt lat="44.66466" lon="4.47155">
        <ele>500</ele>
        <time>2021-02-22T10:31:27+01:00</time>
      </trkpt>
      <trkpt lat="44.66454" lon="4.47132">
        <ele>503</ele>
        <time>2021-02-22T10:31:32+01:00</time>
      </trkpt>
      <trkpt lat="44.66428" lon="4.47109">
        <ele>503</ele>
        <time>2021-02-22T10:31:37+01:00</time>
      </trkpt>
      <trkpt lat="44.66414" lon="4.47094">
        <ele>504</ele>
        <time>2021-02-22T10:31:42+01:00</time>
      </trkpt>
      <trkpt lat="44.66406" lon="4.47064">
        <ele>505</ele>
        <time>2021-02-22T10:31:47+01:00</time>
      </trkpt>
      <trkpt lat="44.66392" lon="4.47031">
        <ele>503</ele>
        <time>2021-02-22T10:31:52+01:00</time>
      </trkpt>
      <trkpt lat="44.6639" lon="4.47013">
        <ele>503</ele>
        <time>2021-02-22T10:31:57+01:00</time>
      </trkpt>
      <trkpt lat="44.66411" lon="4.46972">
        <ele>512</ele>
        <time>2021-02-22T10:32:02+01:00</time>
      </trkpt>
      <trkpt lat="44.66421" lon="4.46957">
        <ele>517</ele>
        <time>2021-02-22T10:32:07+01:00</time>
      </trkpt>
      <trkpt lat="44.66435" lon="4.46926">
        <ele>522</ele>
        <time>2021-02-22T10:32:12+01:00</time>
      </trkpt>
      <trkpt lat="44.66443" lon="4.46908">
        <ele>527</ele>
        <time>2021-02-22T10:32:17+01:00</time>
      </trkpt>
      <trkpt lat="44.66444" lon="4.46882">
        <ele>532</ele>
        <time>2021-02-22T10:32:22+01:00</time>
      </trkpt>
      <trkpt lat="44.66437" lon="4.46868">
        <ele>532</ele>
        <time>2021-02-22T10:32:27+01:00</time>
      </trkpt>
      <trkpt lat="44.66425" lon="4.4685">
        <ele>532</ele>
        <time>2021-02-22T10:32:32+01:00</time>
      </trkpt>
      <trkpt lat="44.66407" lon="4.4684">
        <ele>530</ele>
        <time>2021-02-22T10:32:37+01:00</time>
      </trkpt>
      <trkpt lat="44.66374" lon="4.46821">
        <ele>529</ele>
        <time>2021-02-22T10:32:42+01:00</time>
      </trkpt>
      <trkpt lat="44.66324" lon="4.46808">
        <ele>524</ele>
        <time>2021-02-22T10:32:47+01:00</time>
      </trkpt>
      <trkpt lat="44.66296" lon="4.46785">
        <ele>525</ele>
        <time>2021-02-22T10:32:52+01:00</time>
      </trkpt>
      <trkpt lat="44.6628" lon="4.46763">
        <ele>527</ele>
        <time>2021-02-22T10:32:57+01:00</time>
      </trkpt>
      <trkpt lat="44.66268" lon="4.46738">
        <ele>532</ele>
        <time>2021-02-22T10:33:02+01:00</time>
      </trkpt>
      <trkpt lat="44.66257" lon="4.4671">
        <ele>538</ele>
        <time>2021-02-22T10:33:07+01:00</time>
      </trkpt>
      <trkpt lat="44.66246" lon="4.467">
        <ele>540</ele>
        <time>2021-02-22T10:33:12+01:00</time>
      </trkpt>
      <trkpt lat="44.66235" lon="4.46695">
        <ele>541</ele>
        <time>2021-02-22T10:33:17+01:00</time>
      </trkpt>
      <trkpt lat="44.66224" lon="4.46694">
        <ele>540</ele>
        <time>2021-02-22T10:33:22+01:00</time>
      </trkpt>
      <trkpt lat="44.662" lon="4.467">
        <ele>536</ele>
        <time>2021-02-22T10:33:27+01:00</time>
      </trkpt>
      <trkpt lat="44.6618" lon="4.46707">
        <ele>532</ele>
        <time>2021-02-22T10:33:32+01:00</time>
      </trkpt>
      <trkpt lat="44.66161" lon="4.46711">
        <ele>529</ele>
        <time>2021-02-22T10:33:37+01:00</time>
      </trkpt>
      <trkpt lat="44.66137" lon="4.46708">
        <ele>531</ele>
        <time>2021-02-22T10:33:42+01:00</time>
      </trkpt>
      <trkpt lat="44.66114" lon="4.467">
        <ele>535</ele>
        <time>2021-02-22T10:33:47+01:00</time>
      </trkpt>
      <trkpt lat="44.66083" lon="4.46691">
        <ele>539</ele>
        <time>2021-02-22T10:33:52+01:00</time>
      </trkpt>
      <trkpt lat="44.66062" lon="4.4667">
        <ele>542</ele>
        <time>2021-02-22T10:33:57+01:00</time>
      </trkpt>
      <trkpt lat="44.66046" lon="4.46654">
        <ele>543</ele>
        <time>2021-02-22T10:34:02+01:00</time>
      </trkpt>
      <trkpt lat="44.66029" lon="4.46629">
        <ele>544</ele>
        <time>2021-02-22T10:34:07+01:00</time>
      </trkpt>
      <trkpt lat="44.66008" lon="4.4659">
        <ele>549</ele>
        <time>2021-02-22T10:34:12+01:00</time>
      </trkpt>
      <trkpt lat="44.65996" lon="4.46572">
        <ele>549</ele>
        <time>2021-02-22T10:34:17+01:00</time>
      </trkpt>
      <trkpt lat="44.65989" lon="4.46553">
        <ele>549</ele>
        <time>2021-02-22T10:34:22+01:00</time>
      </trkpt>
      <trkpt lat="44.65984" lon="4.46539">
        <ele>549</ele>
        <time>2021-02-22T10:34:27+01:00</time>
      </trkpt>
      <trkpt lat="44.65971" lon="4.46527">
        <ele>549</ele>
        <time>2021-02-22T10:34:32+01:00</time>
      </trkpt>
      <trkpt lat="44.65907" lon="4.46487">
        <ele>554</ele>
        <time>2021-02-22T10:34:37+01:00</time>
      </trkpt>
      <trkpt lat="44.65894" lon="4.46484">
        <ele>554</ele>
        <time>2021-02-22T10:34:42+01:00</time>
      </trkpt>
      <trkpt lat="44.65881" lon="4.46493">
        <ele>555</ele>
        <time>2021-02-22T10:34:47+01:00</time>
      </trkpt>
      <trkpt lat="44.65869" lon="4.46495">
        <ele>555</ele>
        <time>2021-02-22T10:34:52+01:00</time>
      </trkpt>
      <trkpt lat="44.65834" lon="4.46484">
        <ele>556</ele>
        <time>2021-02-22T10:34:57+01:00</time>
      </trkpt>
      <trkpt lat="44.65822" lon="4.46475">
        <ele>555</ele>
        <time>2021-02-22T10:35:02+01:00</time>
      </trkpt>
      <trkpt lat="44.65808" lon="4.46467">
        <ele>555</ele>
        <time>2021-02-22T10:35:07+01:00</time>
      </trkpt>
      <trkpt lat="44.6579" lon="4.46462">
        <ele>553</ele>
        <time>2021-02-22T10:35:12+01:00</time>
      </trkpt>
      <trkpt lat="44.6577" lon="4.4646">
        <ele>552</ele>
        <time>2021-02-22T10:35:17+01:00</time>
      </trkpt>
      <trkpt lat="44.65751" lon="4.46453">
        <ele>550</ele>
        <time>2021-02-22T10:35:22+01:00</time>
      </trkpt>
      <trkpt lat="44.65733" lon="4.46444">
        <ele>548</ele>
        <time>2021-02-22T10:35:27+01:00</time>
      </trkpt>
      <trkpt lat="44.65717" lon="4.46431">
        <ele>547</ele>
        <time>2021-02-22T10:35:32+01:00</time>
      </trkpt>
      <trkpt lat="44.65706" lon="4.46421">
        <ele>547</ele>
        <time>2021-02-22T10:35:37+01:00</time>
      </trkpt>
      <trkpt lat="44.65692" lon="4.46411">
        <ele>545</ele>
        <time>2021-02-22T10:35:42+01:00</time>
      </trkpt>
      <trkpt lat="44.65602" lon="4.46359">
        <ele>531</ele>
        <time>2021-02-22T10:35:47+01:00</time>
      </trkpt>
      <trkpt lat="44.65579" lon="4.46348">
        <ele>530</ele>
        <time>2021-02-22T10:35:52+01:00</time>
      </trkpt>
      <trkpt lat="44.65554" lon="4.46339">
        <ele>531</ele>
        <time>2021-02-22T10:35:57+01:00</time>
      </trkpt>
      <trkpt lat="44.65527" lon="4.46349">
        <ele>531</ele>
        <time>2021-02-22T10:36:02+01:00</time>
      </trkpt>
      <trkpt lat="44.6549" lon="4.46342">
        <ele>530</ele>
        <time>2021-02-22T10:36:07+01:00</time>
      </trkpt>
      <trkpt lat="44.6547" lon="4.46333">
        <ele>526</ele>
        <time>2021-02-22T10:36:12+01:00</time>
      </trkpt>
      <trkpt lat="44.65451" lon="4.46342">
        <ele>523</ele>
        <time>2021-02-22T10:36:17+01:00</time>
      </trkpt>
      <trkpt lat="44.65435" lon="4.4636">
        <ele>521</ele>
        <time>2021-02-22T10:36:22+01:00</time>
      </trkpt>
      <trkpt lat="44.65407" lon="4.4638">
        <ele>516</ele>
        <time>2021-02-22T10:36:27+01:00</time>
      </trkpt>
      <trkpt lat="44.65347" lon="4.46394">
        <ele>501</ele>
        <time>2021-02-22T10:36:32+01:00</time>
      </trkpt>
      <trkpt lat="44.65316" lon="4.46394">
        <ele>494</ele>
        <time>2021-02-22T10:36:37+01:00</time>
      </trkpt>
      <trkpt lat="44.65303" lon="4.46385">
        <ele>492</ele>
        <time>2021-02-22T10:36:42+01:00</time>
      </trkpt>
      <trkpt lat="44.65279" lon="4.46387">
        <ele>489</ele>
        <time>2021-02-22T10:36:47+01:00</time>
      </trkpt>
      <trkpt lat="44.65264" lon="4.46385">
        <ele>487</ele>
        <time>2021-02-22T10:36:52+01:00</time>
      </trkpt>
      <trkpt lat="44.65245" lon="4.46383">
        <ele>484</ele>
        <time>2021-02-22T10:36:57+01:00</time>
      </trkpt>
      <trkpt lat="44.65228" lon="4.4637">
        <ele>483</ele>
        <time>2021-02-22T10:37:02+01:00</time>
      </trkpt>
      <trkpt lat="44.65213" lon="4.46353">
        <ele>483</ele>
        <time>2021-02-22T10:37:07+01:00</time>
      </trkpt>
      <trkpt lat="44.65183" lon="4.46323">
        <ele>483</ele>
        <time>2021-02-22T10:37:12+01:00</time>
      </trkpt>
      <trkpt lat="44.65154" lon="4.46311">
        <ele>480</ele>
        <time>2021-02-22T10:37:17+01:00</time>
      </trkpt>
      <trkpt lat="44.65115" lon="4.46285">
        <ele>475</ele>
        <time>2021-02-22T10:37:22+01:00</time>
      </trkpt>
      <trkpt lat="44.6509" lon="4.46288">
        <ele>475</ele>
        <time>2021-02-22T10:37:27+01:00</time>
      </trkpt>
      <trkpt lat="44.65071" lon="4.46289">
        <ele>473</ele>
        <time>2021-02-22T10:37:32+01:00</time>
      </trkpt>
      <trkpt lat="44.65039" lon="4.46263">
        <ele>472</ele>
        <time>2021-02-22T10:37:37+01:00</time>
      </trkpt>
      <trkpt lat="44.65021" lon="4.46253">
        <ele>472</ele>
        <time>2021-02-22T10:37:42+01:00</time>
      </trkpt>
      <trkpt lat="44.65002" lon="4.4625">
        <ele>472</ele>
        <time>2021-02-22T10:37:47+01:00</time>
      </trkpt>
      <trkpt lat="44.6498" lon="4.46228">
        <ele>468</ele>
        <time>2021-02-22T10:37:52+01:00</time>
      </trkpt>
      <trkpt lat="44.6496" lon="4.46202">
        <ele>465</ele>
        <time>2021-02-22T10:37:57+01:00</time>
      </trkpt>
      <trkpt lat="44.64935" lon="4.46163">
        <ele>465</ele>
        <time>2021-02-22T10:38:02+01:00</time>
      </trkpt>
      <trkpt lat="44.64912" lon="4.4612">
        <ele>469</ele>
        <time>2021-02-22T10:38:07+01:00</time>
      </trkpt>
      <trkpt lat="44.64882" lon="4.46073">
        <ele>472</ele>
        <time>2021-02-22T10:38:12+01:00</time>
      </trkpt>
      <trkpt lat="44.64871" lon="4.46056">
        <ele>473</ele>
        <time>2021-02-22T10:38:17+01:00</time>
      </trkpt>
      <trkpt lat="44.64858" lon="4.46043">
        <ele>475</ele>
        <time>2021-02-22T10:38:22+01:00</time>
      </trkpt>
      <trkpt lat="44.64841" lon="4.46037">
        <ele>478</ele>
        <time>2021-02-22T10:38:27+01:00</time>
      </trkpt>
      <trkpt lat="44.64831" lon="4.46007">
        <ele>483</ele>
        <time>2021-02-22T10:38:32+01:00</time>
      </trkpt>
      <trkpt lat="44.64824" lon="4.45969">
        <ele>486</ele>
        <time>2021-02-22T10:38:37+01:00</time>
      </trkpt>
      <trkpt lat="44.64814" lon="4.45932">
        <ele>490</ele>
        <time>2021-02-22T10:38:42+01:00</time>
      </trkpt>
      <trkpt lat="44.64807" lon="4.45856">
        <ele>495</ele>
        <time>2021-02-22T10:38:47+01:00</time>
      </trkpt>
      <trkpt lat="44.64806" lon="4.45823">
        <ele>496</ele>
        <time>2021-02-22T10:38:52+01:00</time>
      </trkpt>
      <trkpt lat="44.64808" lon="4.45798">
        <ele>496</ele>
        <time>2021-02-22T10:38:57+01:00</time>
      </trkpt>
      <trkpt lat="44.64806" lon="4.45774">
        <ele>496</ele>
        <time>2021-02-22T10:39:02+01:00</time>
      </trkpt>
      <trkpt lat="44.64791" lon="4.45691">
        <ele>502</ele>
        <time>2021-02-22T10:39:07+01:00</time>
      </trkpt>
      <trkpt lat="44.64775" lon="4.45663">
        <ele>505</ele>
        <time>2021-02-22T10:39:12+01:00</time>
      </trkpt>
      <trkpt lat="44.64734" lon="4.45632">
        <ele>508</ele>
        <time>2021-02-22T10:39:17+01:00</time>
      </trkpt>
      <trkpt lat="44.64711" lon="4.4562">
        <ele>510</ele>
        <time>2021-02-22T10:39:22+01:00</time>
      </trkpt>
      <trkpt lat="44.64685" lon="4.45613">
        <ele>514</ele>
        <time>2021-02-22T10:39:27+01:00</time>
      </trkpt>
      <trkpt lat="44.64656" lon="4.45613">
        <ele>518</ele>
        <time>2021-02-22T10:39:32+01:00</time>
      </trkpt>
      <trkpt lat="44.64635" lon="4.45617">
        <ele>518</ele>
        <time>2021-02-22T10:39:37+01:00</time>
      </trkpt>
      <trkpt lat="44.64619" lon="4.45616">
        <ele>518</ele>
        <time>2021-02-22T10:39:42+01:00</time>
      </trkpt>
      <trkpt lat="44.6461" lon="4.45627">
        <ele>517</ele>
        <time>2021-02-22T10:39:47+01:00</time>
      </trkpt>
      <trkpt lat="44.646" lon="4.45635">
        <ele>515</ele>
        <time>2021-02-22T10:39:52+01:00</time>
      </trkpt>
      <trkpt lat="44.64582" lon="4.4564">
        <ele>514</ele>
        <time>2021-02-22T10:39:57+01:00</time>
      </trkpt>
      <trkpt lat="44.64562" lon="4.45655">
        <ele>512</ele>
        <time>2021-02-22T10:40:02+01:00</time>
      </trkpt>
      <trkpt lat="44.64544" lon="4.45669">
        <ele>510</ele>
        <time>2021-02-22T10:40:07+01:00</time>
      </trkpt>
      <trkpt lat="44.64527" lon="4.45691">
        <ele>507</ele>
        <time>2021-02-22T10:40:12+01:00</time>
      </trkpt>
      <trkpt lat="44.64492" lon="4.45708">
        <ele>504</ele>
        <time>2021-02-22T10:40:17+01:00</time>
      </trkpt>
      <trkpt lat="44.64447" lon="4.45706">
        <ele>506</ele>
        <time>2021-02-22T10:40:22+01:00</time>
      </trkpt>
      <trkpt lat="44.64349" lon="4.45768">
        <ele>503</ele>
        <time>2021-02-22T10:40:27+01:00</time>
      </trkpt>
      <trkpt lat="44.64316" lon="4.458">
        <ele>501</ele>
        <time>2021-02-22T10:40:32+01:00</time>
      </trkpt>
      <trkpt lat="44.64305" lon="4.45815">
        <ele>500</ele>
        <time>2021-02-22T10:40:37+01:00</time>
      </trkpt>
      <trkpt lat="44.64289" lon="4.45827">
        <ele>500</ele>
        <time>2021-02-22T10:40:42+01:00</time>
      </trkpt>
      <trkpt lat="44.64222" lon="4.45869">
        <ele>495</ele>
        <time>2021-02-22T10:40:47+01:00</time>
      </trkpt>
      <trkpt lat="44.64187" lon="4.45891">
        <ele>491</ele>
        <time>2021-02-22T10:40:52+01:00</time>
      </trkpt>
      <trkpt lat="44.64167" lon="4.4588">
        <ele>493</ele>
        <time>2021-02-22T10:40:57+01:00</time>
      </trkpt>
      <trkpt lat="44.64113" lon="4.45846">
        <ele>490</ele>
        <time>2021-02-22T10:41:02+01:00</time>
      </trkpt>
      <trkpt lat="44.64098" lon="4.45822">
        <ele>490</ele>
        <time>2021-02-22T10:41:07+01:00</time>
      </trkpt>
      <trkpt lat="44.64087" lon="4.45775">
        <ele>492</ele>
        <time>2021-02-22T10:41:12+01:00</time>
      </trkpt>
      <trkpt lat="44.64083" lon="4.45734">
        <ele>495</ele>
        <time>2021-02-22T10:41:17+01:00</time>
      </trkpt>
      <trkpt lat="44.64032" lon="4.45639">
        <ele>490</ele>
        <time>2021-02-22T10:41:22+01:00</time>
      </trkpt>
      <trkpt lat="44.64013" lon="4.45636">
        <ele>486</ele>
        <time>2021-02-22T10:41:27+01:00</time>
      </trkpt>
      <trkpt lat="44.63994" lon="4.45626">
        <ele>483</ele>
        <time>2021-02-22T10:41:32+01:00</time>
      </trkpt>
      <trkpt lat="44.63978" lon="4.4561">
        <ele>480</ele>
        <time>2021-02-22T10:41:37+01:00</time>
      </trkpt>
      <trkpt lat="44.63974" lon="4.456">
        <ele>480</ele>
        <time>2021-02-22T10:41:42+01:00</time>
      </trkpt>
      <trkpt lat="44.63972" lon="4.45547">
        <ele>477</ele>
        <time>2021-02-22T10:41:47+01:00</time>
      </trkpt>
      <trkpt lat="44.63971" lon="4.45497">
        <ele>473</ele>
        <time>2021-02-22T10:41:52+01:00</time>
      </trkpt>
      <trkpt lat="44.63968" lon="4.45423">
        <ele>466</ele>
        <time>2021-02-22T10:41:57+01:00</time>
      </trkpt>
      <trkpt lat="44.63978" lon="4.45385">
        <ele>464</ele>
        <time>2021-02-22T10:42:02+01:00</time>
      </trkpt>
      <trkpt lat="44.63993" lon="4.45354">
        <ele>464</ele>
        <time>2021-02-22T10:42:07+01:00</time>
      </trkpt>
      <trkpt lat="44.64006" lon="4.45329">
        <ele>465</ele>
        <time>2021-02-22T10:42:12+01:00</time>
      </trkpt>
      <trkpt lat="44.64023" lon="4.45304">
        <ele>467</ele>
        <time>2021-02-22T10:42:17+01:00</time>
      </trkpt>
      <trkpt lat="44.6402" lon="4.45257">
        <ele>464</ele>
        <time>2021-02-22T10:42:22+01:00</time>
      </trkpt>
      <trkpt lat="44.64032" lon="4.45206">
        <ele>462</ele>
        <time>2021-02-22T10:42:27+01:00</time>
      </trkpt>
      <trkpt lat="44.64043" lon="4.45184">
        <ele>461</ele>
        <time>2021-02-22T10:42:32+01:00</time>
      </trkpt>
      <trkpt lat="44.64028" lon="4.45163">
        <ele>460</ele>
        <time>2021-02-22T10:42:37+01:00</time>
      </trkpt>
      <trkpt lat="44.64033" lon="4.45188">
        <ele>461</ele>
        <time>2021-02-22T10:42:42+01:00</time>
      </trkpt>
      <trkpt lat="44.64017" lon="4.45208">
        <ele>462</ele>
        <time>2021-02-22T10:42:47+01:00</time>
      </trkpt>
      <trkpt lat="44.64004" lon="4.45217">
        <ele>461</ele>
        <time>2021-02-22T10:42:52+01:00</time>
      </trkpt>
      <trkpt lat="44.63991" lon="4.45231">
        <ele>459</ele>
        <time>2021-02-22T10:42:57+01:00</time>
      </trkpt>
      <trkpt lat="44.63985" lon="4.4526">
        <ele>458</ele>
        <time>2021-02-22T10:43:02+01:00</time>
      </trkpt>
      <trkpt lat="44.6398" lon="4.45278">
        <ele>458</ele>
        <time>2021-02-22T10:43:07+01:00</time>
      </trkpt>
      <trkpt lat="44.63973" lon="4.45297">
        <ele>457</ele>
        <time>2021-02-22T10:43:12+01:00</time>
      </trkpt>
      <trkpt lat="44.63867" lon="4.45411">
        <ele>447</ele>
        <time>2021-02-22T10:43:17+01:00</time>
      </trkpt>
      <trkpt lat="44.63845" lon="4.45416">
        <ele>445</ele>
        <time>2021-02-22T10:43:22+01:00</time>
      </trkpt>
      <trkpt lat="44.63811" lon="4.45411">
        <ele>442</ele>
        <time>2021-02-22T10:43:27+01:00</time>
      </trkpt>
      <trkpt lat="44.63797" lon="4.45411">
        <ele>442</ele>
        <time>2021-02-22T10:43:32+01:00</time>
      </trkpt>
      <trkpt lat="44.63781" lon="4.45413">
        <ele>443</ele>
        <time>2021-02-22T10:43:37+01:00</time>
      </trkpt>
      <trkpt lat="44.63756" lon="4.45397">
        <ele>440</ele>
        <time>2021-02-22T10:43:42+01:00</time>
      </trkpt>
      <trkpt lat="44.6368" lon="4.45342">
        <ele>432</ele>
        <time>2021-02-22T10:43:47+01:00</time>
      </trkpt>
      <trkpt lat="44.63668" lon="4.45366">
        <ele>436</ele>
        <time>2021-02-22T10:43:52+01:00</time>
      </trkpt>
      <trkpt lat="44.63663" lon="4.45388">
        <ele>438</ele>
        <time>2021-02-22T10:43:57+01:00</time>
      </trkpt>
      <trkpt lat="44.63658" lon="4.45404">
        <ele>439</ele>
        <time>2021-02-22T10:44:02+01:00</time>
      </trkpt>
      <trkpt lat="44.6365" lon="4.4542">
        <ele>440</ele>
        <time>2021-02-22T10:44:07+01:00</time>
      </trkpt>
      <trkpt lat="44.63639" lon="4.45435">
        <ele>439</ele>
        <time>2021-02-22T10:44:12+01:00</time>
      </trkpt>
      <trkpt lat="44.63626" lon="4.4546">
        <ele>439</ele>
        <time>2021-02-22T10:44:17+01:00</time>
      </trkpt>
      <trkpt lat="44.63607" lon="4.45463">
        <ele>437</ele>
        <time>2021-02-22T10:44:22+01:00</time>
      </trkpt>
      <trkpt lat="44.6358" lon="4.45461">
        <ele>435</ele>
        <time>2021-02-22T10:44:27+01:00</time>
      </trkpt>
      <trkpt lat="44.63554" lon="4.4545">
        <ele>432</ele>
        <time>2021-02-22T10:44:32+01:00</time>
      </trkpt>
      <trkpt lat="44.63537" lon="4.45441">
        <ele>430</ele>
        <time>2021-02-22T10:44:37+01:00</time>
      </trkpt>
      <trkpt lat="44.63523" lon="4.45431">
        <ele>428</ele>
        <time>2021-02-22T10:44:42+01:00</time>
      </trkpt>
      <trkpt lat="44.63507" lon="4.45399">
        <ele>426</ele>
        <time>2021-02-22T10:44:47+01:00</time>
      </trkpt>
      <trkpt lat="44.6349" lon="4.45355">
        <ele>425</ele>
        <time>2021-02-22T10:44:52+01:00</time>
      </trkpt>
      <trkpt lat="44.63478" lon="4.45351">
        <ele>424</ele>
        <time>2021-02-22T10:44:57+01:00</time>
      </trkpt>
      <trkpt lat="44.63466" lon="4.45356">
        <ele>423</ele>
        <time>2021-02-22T10:45:02+01:00</time>
      </trkpt>
      <trkpt lat="44.63448" lon="4.45365">
        <ele>423</ele>
        <time>2021-02-22T10:45:07+01:00</time>
      </trkpt>
      <trkpt lat="44.63426" lon="4.45348">
        <ele>420</ele>
        <time>2021-02-22T10:45:12+01:00</time>
      </trkpt>
      <trkpt lat="44.63405" lon="4.45327">
        <ele>418</ele>
        <time>2021-02-22T10:45:17+01:00</time>
      </trkpt>
      <trkpt lat="44.63393" lon="4.45328">
        <ele>417</ele>
        <time>2021-02-22T10:45:22+01:00</time>
      </trkpt>
      <trkpt lat="44.63366" lon="4.45333">
        <ele>416</ele>
        <time>2021-02-22T10:45:27+01:00</time>
      </trkpt>
      <trkpt lat="44.63322" lon="4.45326">
        <ele>413</ele>
        <time>2021-02-22T10:45:32+01:00</time>
      </trkpt>
      <trkpt lat="44.63293" lon="4.45325">
        <ele>412</ele>
        <time>2021-02-22T10:45:37+01:00</time>
      </trkpt>
      <trkpt lat="44.63276" lon="4.45324">
        <ele>411</ele>
        <time>2021-02-22T10:45:42+01:00</time>
      </trkpt>
      <trkpt lat="44.63268" lon="4.4532">
        <ele>410</ele>
        <time>2021-02-22T10:45:47+01:00</time>
      </trkpt>
      <trkpt lat="44.6326" lon="4.45299">
        <ele>408</ele>
        <time>2021-02-22T10:45:52+01:00</time>
      </trkpt>
      <trkpt lat="44.63254" lon="4.45287">
        <ele>407</ele>
        <time>2021-02-22T10:45:57+01:00</time>
      </trkpt>
      <trkpt lat="44.63226" lon="4.45277">
        <ele>405</ele>
        <time>2021-02-22T10:46:02+01:00</time>
      </trkpt>
      <trkpt lat="44.6321" lon="4.45273">
        <ele>404</ele>
        <time>2021-02-22T10:46:07+01:00</time>
      </trkpt>
      <trkpt lat="44.632" lon="4.45272">
        <ele>404</ele>
        <time>2021-02-22T10:46:12+01:00</time>
      </trkpt>
      <trkpt lat="44.6318" lon="4.45277">
        <ele>404</ele>
        <time>2021-02-22T10:46:17+01:00</time>
      </trkpt>
      <trkpt lat="44.63158" lon="4.45279">
        <ele>403</ele>
        <time>2021-02-22T10:46:22+01:00</time>
      </trkpt>
      <trkpt lat="44.63131" lon="4.45288">
        <ele>401</ele>
        <time>2021-02-22T10:46:27+01:00</time>
      </trkpt>
      <trkpt lat="44.63106" lon="4.45301">
        <ele>399</ele>
        <time>2021-02-22T10:46:32+01:00</time>
      </trkpt>
      <trkpt lat="44.6309" lon="4.45296">
        <ele>398</ele>
        <time>2021-02-22T10:46:37+01:00</time>
      </trkpt>
      <trkpt lat="44.63081" lon="4.45309">
        <ele>397</ele>
        <time>2021-02-22T10:46:42+01:00</time>
      </trkpt>
      <trkpt lat="44.63068" lon="4.45323">
        <ele>395</ele>
        <time>2021-02-22T10:46:47+01:00</time>
      </trkpt>
      <trkpt lat="44.63056" lon="4.45327">
        <ele>393</ele>
        <time>2021-02-22T10:46:52+01:00</time>
      </trkpt>
      <trkpt lat="44.63042" lon="4.45341">
        <ele>391</ele>
        <time>2021-02-22T10:46:57+01:00</time>
      </trkpt>
      <trkpt lat="44.63028" lon="4.45351">
        <ele>389</ele>
        <time>2021-02-22T10:47:02+01:00</time>
      </trkpt>
      <trkpt lat="44.63017" lon="4.45354">
        <ele>388</ele>
        <time>2021-02-22T10:47:07+01:00</time>
      </trkpt>
      <trkpt lat="44.63003" lon="4.45365">
        <ele>386</ele>
        <time>2021-02-22T10:47:12+01:00</time>
      </trkpt>
      <trkpt lat="44.62987" lon="4.45376">
        <ele>384</ele>
        <time>2021-02-22T10:47:17+01:00</time>
      </trkpt>
      <trkpt lat="44.62956" lon="4.4539">
        <ele>380</ele>
        <time>2021-02-22T10:47:22+01:00</time>
      </trkpt>
      <trkpt lat="44.62907" lon="4.4541">
        <ele>375</ele>
        <time>2021-02-22T10:47:27+01:00</time>
      </trkpt>
      <trkpt lat="44.62876" lon="4.45429">
        <ele>371</ele>
        <time>2021-02-22T10:47:32+01:00</time>
      </trkpt>
      <trkpt lat="44.62868" lon="4.45455">
        <ele>369</ele>
        <time>2021-02-22T10:47:37+01:00</time>
      </trkpt>
      <trkpt lat="44.62866" lon="4.45488">
        <ele>367</ele>
        <time>2021-02-22T10:47:42+01:00</time>
      </trkpt>
      <trkpt lat="44.62869" lon="4.45521">
        <ele>365</ele>
        <time>2021-02-22T10:47:47+01:00</time>
      </trkpt>
      <trkpt lat="44.62879" lon="4.45543">
        <ele>363</ele>
        <time>2021-02-22T10:47:52+01:00</time>
      </trkpt>
      <trkpt lat="44.62895" lon="4.4558">
        <ele>361</ele>
        <time>2021-02-22T10:47:57+01:00</time>
      </trkpt>
      <trkpt lat="44.62907" lon="4.45597">
        <ele>361</ele>
        <time>2021-02-22T10:48:02+01:00</time>
      </trkpt>
      <trkpt lat="44.62913" lon="4.45616">
        <ele>359</ele>
        <time>2021-02-22T10:48:07+01:00</time>
      </trkpt>
      <trkpt lat="44.6292" lon="4.45641">
        <ele>358</ele>
        <time>2021-02-22T10:48:12+01:00</time>
      </trkpt>
      <trkpt lat="44.62922" lon="4.45666">
        <ele>356</ele>
        <time>2021-02-22T10:48:17+01:00</time>
      </trkpt>
      <trkpt lat="44.62924" lon="4.45691">
        <ele>355</ele>
        <time>2021-02-22T10:48:22+01:00</time>
      </trkpt>
      <trkpt lat="44.62919" lon="4.45705">
        <ele>353</ele>
        <time>2021-02-22T10:48:27+01:00</time>
      </trkpt>
      <trkpt lat="44.62935" lon="4.45726">
        <ele>354</ele>
        <time>2021-02-22T10:48:32+01:00</time>
      </trkpt>
      <trkpt lat="44.62959" lon="4.45749">
        <ele>354</ele>
        <time>2021-02-22T10:48:37+01:00</time>
      </trkpt>
      <trkpt lat="44.62975" lon="4.45749">
        <ele>355</ele>
        <time>2021-02-22T10:48:42+01:00</time>
      </trkpt>
      <trkpt lat="44.62992" lon="4.45766">
        <ele>356</ele>
        <time>2021-02-22T10:48:47+01:00</time>
      </trkpt>
      <trkpt lat="44.62991" lon="4.45788">
        <ele>355</ele>
        <time>2021-02-22T10:48:52+01:00</time>
      </trkpt>
      <trkpt lat="44.62995" lon="4.45816">
        <ele>354</ele>
        <time>2021-02-22T10:48:57+01:00</time>
      </trkpt>
      <trkpt lat="44.63027" lon="4.4585">
        <ele>356</ele>
        <time>2021-02-22T10:49:02+01:00</time>
      </trkpt>
      <trkpt lat="44.63053" lon="4.45884">
        <ele>356</ele>
        <time>2021-02-22T10:49:07+01:00</time>
      </trkpt>
      <trkpt lat="44.63073" lon="4.459">
        <ele>356</ele>
        <time>2021-02-22T10:49:12+01:00</time>
      </trkpt>
      <trkpt lat="44.6309" lon="4.45913">
        <ele>357</ele>
        <time>2021-02-22T10:49:17+01:00</time>
      </trkpt>
      <trkpt lat="44.63112" lon="4.45923">
        <ele>358</ele>
        <time>2021-02-22T10:49:22+01:00</time>
      </trkpt>
      <trkpt lat="44.63142" lon="4.45925">
        <ele>360</ele>
        <time>2021-02-22T10:49:27+01:00</time>
      </trkpt>
      <trkpt lat="44.63161" lon="4.45916">
        <ele>362</ele>
        <time>2021-02-22T10:49:32+01:00</time>
      </trkpt>
      <trkpt lat="44.63182" lon="4.45926">
        <ele>362</ele>
        <time>2021-02-22T10:49:37+01:00</time>
      </trkpt>
      <trkpt lat="44.63193" lon="4.45936">
        <ele>362</ele>
        <time>2021-02-22T10:49:42+01:00</time>
      </trkpt>
      <trkpt lat="44.63208" lon="4.45958">
        <ele>362</ele>
        <time>2021-02-22T10:49:47+01:00</time>
      </trkpt>
      <trkpt lat="44.63221" lon="4.45981">
        <ele>361</ele>
        <time>2021-02-22T10:49:52+01:00</time>
      </trkpt>
      <trkpt lat="44.63237" lon="4.45997">
        <ele>361</ele>
        <time>2021-02-22T10:49:57+01:00</time>
      </trkpt>
      <trkpt lat="44.63255" lon="4.46026">
        <ele>356</ele>
        <time>2021-02-22T10:50:02+01:00</time>
      </trkpt>
      <trkpt lat="44.6328" lon="4.46052">
        <ele>351</ele>
        <time>2021-02-22T10:50:07+01:00</time>
      </trkpt>
      <trkpt lat="44.63301" lon="4.46064">
        <ele>348</ele>
        <time>2021-02-22T10:50:12+01:00</time>
      </trkpt>
      <trkpt lat="44.63319" lon="4.46068">
        <ele>347</ele>
        <time>2021-02-22T10:50:17+01:00</time>
      </trkpt>
      <trkpt lat="44.63332" lon="4.46068">
        <ele>347</ele>
        <time>2021-02-22T10:50:22+01:00</time>
      </trkpt>
      <trkpt lat="44.63345" lon="4.46075">
        <ele>345</ele>
        <time>2021-02-22T10:50:27+01:00</time>
      </trkpt>
      <trkpt lat="44.63366" lon="4.46074">
        <ele>345</ele>
        <time>2021-02-22T10:50:32+01:00</time>
      </trkpt>
      <trkpt lat="44.63383" lon="4.46067">
        <ele>347</ele>
        <time>2021-02-22T10:50:37+01:00</time>
      </trkpt>
      <trkpt lat="44.63396" lon="4.46064">
        <ele>348</ele>
        <time>2021-02-22T10:50:42+01:00</time>
      </trkpt>
      <trkpt lat="44.63414" lon="4.46076">
        <ele>345</ele>
        <time>2021-02-22T10:50:47+01:00</time>
      </trkpt>
      <trkpt lat="44.63423" lon="4.46094">
        <ele>342</ele>
        <time>2021-02-22T10:50:52+01:00</time>
      </trkpt>
      <trkpt lat="44.63425" lon="4.46105">
        <ele>341</ele>
        <time>2021-02-22T10:50:57+01:00</time>
      </trkpt>
      <trkpt lat="44.63424" lon="4.46126">
        <ele>339</ele>
        <time>2021-02-22T10:51:02+01:00</time>
      </trkpt>
      <trkpt lat="44.6343" lon="4.46142">
        <ele>337</ele>
        <time>2021-02-22T10:51:07+01:00</time>
      </trkpt>
      <trkpt lat="44.63445" lon="4.46165">
        <ele>334.6</ele>
      </trkpt>
      <trkpt lat="44.63472" lon="4.46148">
        <ele>337.1</ele>
      </trkpt>
      <trkpt lat="44.63495" lon="4.46135">
        <ele>339.4</ele>
      </trkpt>
      <trkpt lat="44.63538" lon="4.46144">
        <ele>342.1</ele>
      </trkpt>
      <trkpt lat="44.63559" lon="4.46189">
        <ele>341.5</ele>
      </trkpt>
      <trkpt lat="44.63617" lon="4.46189">
        <ele>344.2</ele>
      </trkpt>
      <trkpt lat="44.63744" lon="4.46146">
        <ele>358.1</ele>
      </trkpt>
      <trkpt lat="44.63615" lon="4.46206">
        <ele>344.2</ele>
      </trkpt>
      <trkpt lat="44.63561" lon="4.46214">
        <ele>343.2</ele>
      </trkpt>
      <trkpt lat="44.63532" lon="4.46172">
        <ele>338.3</ele>
      </trkpt>
      <trkpt lat="44.63514" lon="4.46157">
        <ele>337.7</ele>
      </trkpt>
      <trkpt lat="44.63484" lon="4.46158">
        <ele>336.1</ele>
      </trkpt>
      <trkpt lat="44.63461" lon="4.46197">
        <ele>341.5</ele>
      </trkpt>
      <trkpt lat="44.63469" lon="4.46217">
        <ele>346</ele>
        <time>2021-02-22T10:51:37+01:00</time>
      </trkpt>
      <trkpt lat="44.63478" lon="4.46239">
        <ele>350</ele>
        <time>2021-02-22T10:51:42+01:00</time>
      </trkpt>
      <trkpt lat="44.63496" lon="4.46255">
        <ele>354</ele>
        <time>2021-02-22T10:51:47+01:00</time>
      </trkpt>
      <trkpt lat="44.63513" lon="4.46257">
        <ele>353</ele>
        <time>2021-02-22T10:51:52+01:00</time>
      </trkpt>
      <trkpt lat="44.63535" lon="4.46261">
        <ele>352</ele>
        <time>2021-02-22T10:51:57+01:00</time>
      </trkpt>
      <trkpt lat="44.6356" lon="4.46271">
        <ele>353</ele>
        <time>2021-02-22T10:52:02+01:00</time>
      </trkpt>
      <trkpt lat="44.63583" lon="4.4628">
        <ele>355</ele>
        <time>2021-02-22T10:52:07+01:00</time>
      </trkpt>
      <trkpt lat="44.63603" lon="4.46286">
        <ele>357</ele>
        <time>2021-02-22T10:52:12+01:00</time>
      </trkpt>
      <trkpt lat="44.63617" lon="4.4629">
        <ele>358</ele>
        <time>2021-02-22T10:52:17+01:00</time>
      </trkpt>
      <trkpt lat="44.63631" lon="4.46291">
        <ele>358</ele>
        <time>2021-02-22T10:52:22+01:00</time>
      </trkpt>
      <trkpt lat="44.63667" lon="4.4629">
        <ele>357</ele>
        <time>2021-02-22T10:52:27+01:00</time>
      </trkpt>
      <trkpt lat="44.63693" lon="4.46281">
        <ele>353</ele>
        <time>2021-02-22T10:52:32+01:00</time>
      </trkpt>
      <trkpt lat="44.63713" lon="4.46288">
        <ele>352</ele>
        <time>2021-02-22T10:52:37+01:00</time>
      </trkpt>
      <trkpt lat="44.63717" lon="4.46321">
        <ele>356</ele>
        <time>2021-02-22T10:52:42+01:00</time>
      </trkpt>
      <trkpt lat="44.63712" lon="4.46356">
        <ele>361</ele>
        <time>2021-02-22T10:52:47+01:00</time>
      </trkpt>
      <trkpt lat="44.63712" lon="4.46386">
        <ele>364</ele>
        <time>2021-02-22T10:52:52+01:00</time>
      </trkpt>
      <trkpt lat="44.63709" lon="4.46415">
        <ele>367</ele>
        <time>2021-02-22T10:52:57+01:00</time>
      </trkpt>
      <trkpt lat="44.63699" lon="4.46517">
        <ele>374</ele>
        <time>2021-02-22T10:53:02+01:00</time>
      </trkpt>
      <trkpt lat="44.63692" lon="4.46551">
        <ele>379</ele>
        <time>2021-02-22T10:53:07+01:00</time>
      </trkpt>
      <trkpt lat="44.63685" lon="4.46576">
        <ele>383</ele>
        <time>2021-02-22T10:53:12+01:00</time>
      </trkpt>
      <trkpt lat="44.63676" lon="4.46611">
        <ele>389</ele>
        <time>2021-02-22T10:53:17+01:00</time>
      </trkpt>
      <trkpt lat="44.63663" lon="4.46668">
        <ele>397</ele>
        <time>2021-02-22T10:53:22+01:00</time>
      </trkpt>
      <trkpt lat="44.6366" lon="4.467">
        <ele>399</ele>
        <time>2021-02-22T10:53:27+01:00</time>
      </trkpt>
      <trkpt lat="44.63673" lon="4.46733">
        <ele>399</ele>
        <time>2021-02-22T10:53:32+01:00</time>
      </trkpt>
      <trkpt lat="44.63686" lon="4.46762">
        <ele>397</ele>
        <time>2021-02-22T10:53:37+01:00</time>
      </trkpt>
      <trkpt lat="44.63706" lon="4.46808">
        <ele>395</ele>
        <time>2021-02-22T10:53:42+01:00</time>
      </trkpt>
      <trkpt lat="44.63714" lon="4.46841">
        <ele>396</ele>
        <time>2021-02-22T10:53:47+01:00</time>
      </trkpt>
      <trkpt lat="44.63717" lon="4.46872">
        <ele>398</ele>
        <time>2021-02-22T10:53:52+01:00</time>
      </trkpt>
      <trkpt lat="44.63743" lon="4.46995">
        <ele>407</ele>
        <time>2021-02-22T10:53:57+01:00</time>
      </trkpt>
      <trkpt lat="44.63772" lon="4.46983">
        <ele>404</ele>
        <time>2021-02-22T10:54:02+01:00</time>
      </trkpt>
      <trkpt lat="44.63815" lon="4.46977">
        <ele>400</ele>
        <time>2021-02-22T10:54:07+01:00</time>
      </trkpt>
      <trkpt lat="44.63773" lon="4.46983">
        <ele>404</ele>
        <time>2021-02-22T10:54:12+01:00</time>
      </trkpt>
      <trkpt lat="44.63743" lon="4.46995">
        <ele>407</ele>
        <time>2021-02-22T10:54:17+01:00</time>
      </trkpt>
      <trkpt lat="44.63748" lon="4.47043">
        <ele>410</ele>
        <time>2021-02-22T10:54:22+01:00</time>
      </trkpt>
      <trkpt lat="44.6375" lon="4.4707">
        <ele>411</ele>
        <time>2021-02-22T10:54:27+01:00</time>
      </trkpt>
      <trkpt lat="44.63755" lon="4.47087">
        <ele>412</ele>
        <time>2021-02-22T10:54:32+01:00</time>
      </trkpt>
      <trkpt lat="44.63757" lon="4.47106">
        <ele>412</ele>
        <time>2021-02-22T10:54:37+01:00</time>
      </trkpt>
      <trkpt lat="44.63756" lon="4.47135">
        <ele>412</ele>
        <time>2021-02-22T10:54:42+01:00</time>
      </trkpt>
      <trkpt lat="44.63764" lon="4.47178">
        <ele>413</ele>
        <time>2021-02-22T10:54:47+01:00</time>
      </trkpt>
      <trkpt lat="44.63786" lon="4.47248">
        <ele>414</ele>
        <time>2021-02-22T10:54:52+01:00</time>
      </trkpt>
      <trkpt lat="44.63788" lon="4.47266">
        <ele>414</ele>
        <time>2021-02-22T10:54:57+01:00</time>
      </trkpt>
      <trkpt lat="44.63796" lon="4.47294">
        <ele>415</ele>
        <time>2021-02-22T10:55:02+01:00</time>
      </trkpt>
      <trkpt lat="44.63799" lon="4.47318">
        <ele>416</ele>
        <time>2021-02-22T10:55:07+01:00</time>
      </trkpt>
      <trkpt lat="44.63798" lon="4.47335">
        <ele>417</ele>
        <time>2021-02-22T10:55:12+01:00</time>
      </trkpt>
      <trkpt lat="44.63793" lon="4.47363">
        <ele>419</ele>
        <time>2021-02-22T10:55:17+01:00</time>
      </trkpt>
      <trkpt lat="44.63794" lon="4.47385">
        <ele>422</ele>
        <time>2021-02-22T10:55:22+01:00</time>
      </trkpt>
      <trkpt lat="44.63796" lon="4.47405">
        <ele>423</ele>
        <time>2021-02-22T10:55:27+01:00</time>
      </trkpt>
      <trkpt lat="44.63793" lon="4.47425">
        <ele>426</ele>
        <time>2021-02-22T10:55:32+01:00</time>
      </trkpt>
      <trkpt lat="44.63792" lon="4.47449">
        <ele>428</ele>
        <time>2021-02-22T10:55:37+01:00</time>
      </trkpt>
      <trkpt lat="44.6378" lon="4.47458">
        <ele>429</ele>
        <time>2021-02-22T10:55:42+01:00</time>
      </trkpt>
      <trkpt lat="44.63767" lon="4.47465">
        <ele>430</ele>
        <time>2021-02-22T10:55:47+01:00</time>
      </trkpt>
      <trkpt lat="44.6376" lon="4.47484">
        <ele>432</ele>
        <time>2021-02-22T10:55:52+01:00</time>
      </trkpt>
      <trkpt lat="44.63772" lon="4.47469">
        <ele>430</ele>
        <time>2021-02-22T10:55:57+01:00</time>
      </trkpt>
      <trkpt lat="44.63792" lon="4.47462">
        <ele>430</ele>
        <time>2021-02-22T10:56:02+01:00</time>
      </trkpt>
      <trkpt lat="44.63824" lon="4.47477">
        <ele>433</ele>
        <time>2021-02-22T10:56:07+01:00</time>
      </trkpt>
      <trkpt lat="44.63856" lon="4.47497">
        <ele>434</ele>
        <time>2021-02-22T10:56:12+01:00</time>
      </trkpt>
      <trkpt lat="44.63892" lon="4.47526">
        <ele>435</ele>
        <time>2021-02-22T10:56:17+01:00</time>
      </trkpt>
      <trkpt lat="44.63919" lon="4.4755">
        <ele>438</ele>
        <time>2021-02-22T10:56:22+01:00</time>
      </trkpt>
      <trkpt lat="44.63928" lon="4.47565">
        <ele>439</ele>
        <time>2021-02-22T10:56:27+01:00</time>
      </trkpt>
      <trkpt lat="44.63938" lon="4.47587">
        <ele>442</ele>
        <time>2021-02-22T10:56:32+01:00</time>
      </trkpt>
      <trkpt lat="44.63958" lon="4.47584">
        <ele>440</ele>
        <time>2021-02-22T10:56:37+01:00</time>
      </trkpt>
      <trkpt lat="44.63971" lon="4.4757">
        <ele>437</ele>
        <time>2021-02-22T10:56:42+01:00</time>
      </trkpt>
      <trkpt lat="44.63991" lon="4.47562">
        <ele>435</ele>
        <time>2021-02-22T10:56:47+01:00</time>
      </trkpt>
      <trkpt lat="44.64013" lon="4.4756">
        <ele>434</ele>
        <time>2021-02-22T10:56:52+01:00</time>
      </trkpt>
      <trkpt lat="44.64044" lon="4.47557">
        <ele>434</ele>
        <time>2021-02-22T10:56:57+01:00</time>
      </trkpt>
      <trkpt lat="44.64058" lon="4.4757">
        <ele>436</ele>
        <time>2021-02-22T10:57:02+01:00</time>
      </trkpt>
      <trkpt lat="44.64062" lon="4.47594">
        <ele>438</ele>
        <time>2021-02-22T10:57:07+01:00</time>
      </trkpt>
      <trkpt lat="44.64062" lon="4.47612">
        <ele>440</ele>
        <time>2021-02-22T10:57:12+01:00</time>
      </trkpt>
      <trkpt lat="44.64074" lon="4.47638">
        <ele>443</ele>
        <time>2021-02-22T10:57:17+01:00</time>
      </trkpt>
      <trkpt lat="44.64082" lon="4.47633">
        <ele>442</ele>
        <time>2021-02-22T10:57:22+01:00</time>
      </trkpt>
      <trkpt lat="44.64097" lon="4.476">
        <ele>440</ele>
        <time>2021-02-22T10:57:27+01:00</time>
      </trkpt>
      <trkpt lat="44.64106" lon="4.47569">
        <ele>439</ele>
        <time>2021-02-22T10:57:32+01:00</time>
      </trkpt>
      <trkpt lat="44.64111" lon="4.47533">
        <ele>436</ele>
        <time>2021-02-22T10:57:37+01:00</time>
      </trkpt>
      <trkpt lat="44.64114" lon="4.47515">
        <ele>435</ele>
        <time>2021-02-22T10:57:42+01:00</time>
      </trkpt>
      <trkpt lat="44.64124" lon="4.47497">
        <ele>435</ele>
        <time>2021-02-22T10:57:47+01:00</time>
      </trkpt>
      <trkpt lat="44.64139" lon="4.47491">
        <ele>436</ele>
        <time>2021-02-22T10:57:52+01:00</time>
      </trkpt>
      <trkpt lat="44.64157" lon="4.47493">
        <ele>438</ele>
        <time>2021-02-22T10:57:57+01:00</time>
      </trkpt>
      <trkpt lat="44.64219" lon="4.47526">
        <ele>445</ele>
        <time>2021-02-22T10:58:02+01:00</time>
      </trkpt>
      <trkpt lat="44.64254" lon="4.47544">
        <ele>448</ele>
        <time>2021-02-22T10:58:07+01:00</time>
      </trkpt>
      <trkpt lat="44.64272" lon="4.47557">
        <ele>449</ele>
        <time>2021-02-22T10:58:12+01:00</time>
      </trkpt>
      <trkpt lat="44.64288" lon="4.47575">
        <ele>451</ele>
        <time>2021-02-22T10:58:17+01:00</time>
      </trkpt>
      <trkpt lat="44.64304" lon="4.47599">
        <ele>452</ele>
        <time>2021-02-22T10:58:22+01:00</time>
      </trkpt>
      <trkpt lat="44.64316" lon="4.47623">
        <ele>454</ele>
        <time>2021-02-22T10:58:27+01:00</time>
      </trkpt>
      <trkpt lat="44.64327" lon="4.47659">
        <ele>456</ele>
        <time>2021-02-22T10:58:32+01:00</time>
      </trkpt>
      <trkpt lat="44.6434" lon="4.4769">
        <ele>459</ele>
        <time>2021-02-22T10:58:37+01:00</time>
      </trkpt>
      <trkpt lat="44.64365" lon="4.47727">
        <ele>461</ele>
        <time>2021-02-22T10:58:42+01:00</time>
      </trkpt>
      <trkpt lat="44.64383" lon="4.47751">
        <ele>462</ele>
        <time>2021-02-22T10:58:47+01:00</time>
      </trkpt>
      <trkpt lat="44.64399" lon="4.47761">
        <ele>462</ele>
        <time>2021-02-22T10:58:52+01:00</time>
      </trkpt>
      <trkpt lat="44.64392" lon="4.47778">
        <ele>465</ele>
        <time>2021-02-22T10:58:57+01:00</time>
      </trkpt>
      <trkpt lat="44.64377" lon="4.47769">
        <ele>465</ele>
        <time>2021-02-22T10:59:02+01:00</time>
      </trkpt>
      <trkpt lat="44.64358" lon="4.47763">
        <ele>466</ele>
        <time>2021-02-22T10:59:07+01:00</time>
      </trkpt>
      <trkpt lat="44.64339" lon="4.47764">
        <ele>468</ele>
        <time>2021-02-22T10:59:12+01:00</time>
      </trkpt>
      <trkpt lat="44.64276" lon="4.47783">
        <ele>472</ele>
        <time>2021-02-22T10:59:17+01:00</time>
      </trkpt>
      <trkpt lat="44.64243" lon="4.47792">
        <ele>473</ele>
        <time>2021-02-22T10:59:22+01:00</time>
      </trkpt>
      <trkpt lat="44.64226" lon="4.47799">
        <ele>473</ele>
        <time>2021-02-22T10:59:27+01:00</time>
      </trkpt>
      <trkpt lat="44.64212" lon="4.47813">
        <ele>475</ele>
        <time>2021-02-22T10:59:32+01:00</time>
      </trkpt>
      <trkpt lat="44.64199" lon="4.47836">
        <ele>477</ele>
        <time>2021-02-22T10:59:37+01:00</time>
      </trkpt>
      <trkpt lat="44.64192" lon="4.47862">
        <ele>478</ele>
        <time>2021-02-22T10:59:42+01:00</time>
      </trkpt>
      <trkpt lat="44.64186" lon="4.47887">
        <ele>478</ele>
        <time>2021-02-22T10:59:47+01:00</time>
      </trkpt>
      <trkpt lat="44.64198" lon="4.47913">
        <ele>480</ele>
        <time>2021-02-22T10:59:52+01:00</time>
      </trkpt>
      <trkpt lat="44.64206" lon="4.47916">
        <ele>481</ele>
        <time>2021-02-22T10:59:57+01:00</time>
      </trkpt>
      <trkpt lat="44.64244" lon="4.47929">
        <ele>485</ele>
        <time>2021-02-22T11:00:02+01:00</time>
      </trkpt>
      <trkpt lat="44.64266" lon="4.4794">
        <ele>487</ele>
        <time>2021-02-22T11:00:07+01:00</time>
      </trkpt>
      <trkpt lat="44.64298" lon="4.47975">
        <ele>489</ele>
        <time>2021-02-22T11:00:12+01:00</time>
      </trkpt>
      <trkpt lat="44.64313" lon="4.48004">
        <ele>490</ele>
        <time>2021-02-22T11:00:17+01:00</time>
      </trkpt>
      <trkpt lat="44.64321" lon="4.48033">
        <ele>493</ele>
        <time>2021-02-22T11:00:22+01:00</time>
      </trkpt>
      <trkpt lat="44.6432" lon="4.4806">
        <ele>496</ele>
        <time>2021-02-22T11:00:27+01:00</time>
      </trkpt>
      <trkpt lat="44.64311" lon="4.48089">
        <ele>498</ele>
        <time>2021-02-22T11:00:32+01:00</time>
      </trkpt>
      <trkpt lat="44.64297" lon="4.48108">
        <ele>500</ele>
        <time>2021-02-22T11:00:37+01:00</time>
      </trkpt>
      <trkpt lat="44.64279" lon="4.4812">
        <ele>501</ele>
        <time>2021-02-22T11:00:42+01:00</time>
      </trkpt>
      <trkpt lat="44.64253" lon="4.48132">
        <ele>502</ele>
        <time>2021-02-22T11:00:47+01:00</time>
      </trkpt>
      <trkpt lat="44.64235" lon="4.48144">
        <ele>503</ele>
        <time>2021-02-22T11:00:52+01:00</time>
      </trkpt>
      <trkpt lat="44.64213" lon="4.48164">
        <ele>504</ele>
        <time>2021-02-22T11:00:57+01:00</time>
      </trkpt>
      <trkpt lat="44.64195" lon="4.48174">
        <ele>505</ele>
        <time>2021-02-22T11:01:02+01:00</time>
      </trkpt>
      <trkpt lat="44.64174" lon="4.48177">
        <ele>504</ele>
        <time>2021-02-22T11:01:07+01:00</time>
      </trkpt>
      <trkpt lat="44.64137" lon="4.48179">
        <ele>506</ele>
        <time>2021-02-22T11:01:12+01:00</time>
      </trkpt>
      <trkpt lat="44.64119" lon="4.48179">
        <ele>506</ele>
        <time>2021-02-22T11:01:17+01:00</time>
      </trkpt>
      <trkpt lat="44.64101" lon="4.48177">
        <ele>507</ele>
        <time>2021-02-22T11:01:22+01:00</time>
      </trkpt>
      <trkpt lat="44.64" lon="4.48138">
        <ele>511</ele>
        <time>2021-02-22T11:01:27+01:00</time>
      </trkpt>
      <trkpt lat="44.63948" lon="4.48117">
        <ele>512</ele>
        <time>2021-02-22T11:01:32+01:00</time>
      </trkpt>
      <trkpt lat="44.63906" lon="4.48099">
        <ele>515</ele>
        <time>2021-02-22T11:01:37+01:00</time>
      </trkpt>
      <trkpt lat="44.63887" lon="4.48077">
        <ele>516</ele>
        <time>2021-02-22T11:01:42+01:00</time>
      </trkpt>
      <trkpt lat="44.63874" lon="4.48055">
        <ele>515</ele>
        <time>2021-02-22T11:01:47+01:00</time>
      </trkpt>
      <trkpt lat="44.63863" lon="4.48052">
        <ele>517</ele>
        <time>2021-02-22T11:01:52+01:00</time>
      </trkpt>
      <trkpt lat="44.63877" lon="4.4808">
        <ele>519</ele>
        <time>2021-02-22T11:01:57+01:00</time>
      </trkpt>
      <trkpt lat="44.63889" lon="4.48113">
        <ele>521</ele>
        <time>2021-02-22T11:02:02+01:00</time>
      </trkpt>
      <trkpt lat="44.63894" lon="4.48137">
        <ele>524</ele>
        <time>2021-02-22T11:02:07+01:00</time>
      </trkpt>
      <trkpt lat="44.63903" lon="4.48167">
        <ele>526</ele>
        <time>2021-02-22T11:02:12+01:00</time>
      </trkpt>
      <trkpt lat="44.63922" lon="4.48209">
        <ele>528</ele>
        <time>2021-02-22T11:02:17+01:00</time>
      </trkpt>
      <trkpt lat="44.63931" lon="4.4823">
        <ele>530</ele>
        <time>2021-02-22T11:02:22+01:00</time>
      </trkpt>
      <trkpt lat="44.63921" lon="4.48248">
        <ele>534</ele>
        <time>2021-02-22T11:02:27+01:00</time>
      </trkpt>
      <trkpt lat="44.63905" lon="4.48251">
        <ele>538</ele>
        <time>2021-02-22T11:02:32+01:00</time>
      </trkpt>
      <trkpt lat="44.63893" lon="4.48246">
        <ele>540</ele>
        <time>2021-02-22T11:02:37+01:00</time>
      </trkpt>
      <trkpt lat="44.63879" lon="4.48241">
        <ele>543</ele>
        <time>2021-02-22T11:02:42+01:00</time>
      </trkpt>
      <trkpt lat="44.63863" lon="4.4824">
        <ele>546</ele>
        <time>2021-02-22T11:02:47+01:00</time>
      </trkpt>
      <trkpt lat="44.63844" lon="4.48246">
        <ele>552</ele>
        <time>2021-02-22T11:02:52+01:00</time>
      </trkpt>
      <trkpt lat="44.63826" lon="4.48244">
        <ele>556</ele>
        <time>2021-02-22T11:02:57+01:00</time>
      </trkpt>
      <trkpt lat="44.63819" lon="4.48238">
        <ele>557</ele>
        <time>2021-02-22T11:03:02+01:00</time>
      </trkpt>
      <trkpt lat="44.63812" lon="4.48219">
        <ele>556</ele>
        <time>2021-02-22T11:03:07+01:00</time>
      </trkpt>
      <trkpt lat="44.63812" lon="4.482">
        <ele>554</ele>
        <time>2021-02-22T11:03:12+01:00</time>
      </trkpt>
      <trkpt lat="44.63813" lon="4.48179">
        <ele>551</ele>
        <time>2021-02-22T11:03:17+01:00</time>
      </trkpt>
      <trkpt lat="44.63814" lon="4.48161">
        <ele>549</ele>
        <time>2021-02-22T11:03:22+01:00</time>
      </trkpt>
      <trkpt lat="44.63814" lon="4.48135">
        <ele>544</ele>
        <time>2021-02-22T11:03:27+01:00</time>
      </trkpt>
      <trkpt lat="44.6381" lon="4.4811">
        <ele>542</ele>
        <time>2021-02-22T11:03:32+01:00</time>
      </trkpt>
      <trkpt lat="44.63794" lon="4.48081">
        <ele>543</ele>
        <time>2021-02-22T11:03:37+01:00</time>
      </trkpt>
      <trkpt lat="44.6378" lon="4.48067">
        <ele>543</ele>
        <time>2021-02-22T11:03:42+01:00</time>
      </trkpt>
      <trkpt lat="44.63766" lon="4.48058">
        <ele>545</ele>
        <time>2021-02-22T11:03:47+01:00</time>
      </trkpt>
      <trkpt lat="44.63747" lon="4.48055">
        <ele>548</ele>
        <time>2021-02-22T11:03:52+01:00</time>
      </trkpt>
      <trkpt lat="44.6373" lon="4.4806">
        <ele>546</ele>
        <time>2021-02-22T11:03:57+01:00</time>
      </trkpt>
      <trkpt lat="44.63718" lon="4.48056">
        <ele>543</ele>
        <time>2021-02-22T11:04:02+01:00</time>
      </trkpt>
    </trkseg>
  </trk>
</gpx>